<?xml version="1.0" encoding="UTF-8" standalone="no" ?>
<gpx xmlns="http://www.topografix.com/GPX/1/1" xmlns:xsi="http://www.w3.org/2001/XMLSchema-instance" xsi:schemaLocation="http://www.topografix.com/GPX/1/1 http://www.topografix.com/GPX/1/1/gpx.xsd" version="1.1" creator="VisuGPX - https://www.visugpx.com">
  <metadata>
    <name>Tour du Mont Vinaigre depuis le Malpey</name>
    <desc><![CDATA[Parking de la MF du Malpey, Mont Vinaigre, tour par le nord]]></desc>
  </metadata>
  <trk>
    <name><![CDATA[Tracé actuel: 10 AVR 2011 09:54]]></name>
    <trkseg>
      <trkpt lat="43.49663" lon="6.80266">
        <ele>370.73</ele>
        <time>2011-04-10T07:54:31Z</time>
      </trkpt>
      <trkpt lat="43.49665" lon="6.80281">
        <ele>373.61</ele>
        <time>2011-04-10T07:54:43Z</time>
      </trkpt>
      <trkpt lat="43.49668" lon="6.80285">
        <ele>375.53</ele>
        <time>2011-04-10T07:54:50Z</time>
      </trkpt>
      <trkpt lat="43.49675" lon="6.80296">
        <ele>377.94</ele>
        <time>2011-04-10T07:55:01Z</time>
      </trkpt>
      <trkpt lat="43.49682" lon="6.80307">
        <ele>382.26</ele>
        <time>2011-04-10T07:55:13Z</time>
      </trkpt>
      <trkpt lat="43.49683" lon="6.8032">
        <ele>382.74</ele>
        <time>2011-04-10T07:55:28Z</time>
      </trkpt>
      <trkpt lat="43.49682" lon="6.80326">
        <ele>383.22</ele>
        <time>2011-04-10T07:55:33Z</time>
      </trkpt>
      <trkpt lat="43.4968" lon="6.80339">
        <ele>383.7</ele>
        <time>2011-04-10T07:55:44Z</time>
      </trkpt>
      <trkpt lat="43.49679" lon="6.80346">
        <ele>383.22</ele>
        <time>2011-04-10T07:56:02Z</time>
      </trkpt>
      <trkpt lat="43.49679" lon="6.80346">
        <ele>384.18</ele>
        <time>2011-04-10T07:56:26Z</time>
      </trkpt>
      <trkpt lat="43.49681" lon="6.80358">
        <ele>384.66</ele>
        <time>2011-04-10T07:56:40Z</time>
      </trkpt>
      <trkpt lat="43.49686" lon="6.8037">
        <ele>385.63</ele>
        <time>2011-04-10T07:56:55Z</time>
      </trkpt>
      <trkpt lat="43.4969" lon="6.80374">
        <ele>386.11</ele>
        <time>2011-04-10T07:57:02Z</time>
      </trkpt>
      <trkpt lat="43.49693" lon="6.80375">
        <ele>382.26</ele>
        <time>2011-04-10T07:57:11Z</time>
      </trkpt>
      <trkpt lat="43.49693" lon="6.80375">
        <ele>390.91</ele>
        <time>2011-04-10T07:57:12Z</time>
      </trkpt>
      <trkpt lat="43.49693" lon="6.80375">
        <ele>385.63</ele>
        <time>2011-04-10T07:57:13Z</time>
      </trkpt>
      <trkpt lat="43.49703" lon="6.80387">
        <ele>386.59</ele>
        <time>2011-04-10T07:57:27Z</time>
      </trkpt>
      <trkpt lat="43.49706" lon="6.8039">
        <ele>387.07</ele>
        <time>2011-04-10T07:57:30Z</time>
      </trkpt>
      <trkpt lat="43.4971" lon="6.80394">
        <ele>387.07</ele>
        <time>2011-04-10T07:57:34Z</time>
      </trkpt>
      <trkpt lat="43.49716" lon="6.80406">
        <ele>387.07</ele>
        <time>2011-04-10T07:57:43Z</time>
      </trkpt>
      <trkpt lat="43.49725" lon="6.80414">
        <ele>387.55</ele>
        <time>2011-04-10T07:57:57Z</time>
      </trkpt>
      <trkpt lat="43.49725" lon="6.80414">
        <ele>387.07</ele>
        <time>2011-04-10T07:57:58Z</time>
      </trkpt>
      <trkpt lat="43.49726" lon="6.80416">
        <ele>387.55</ele>
        <time>2011-04-10T07:58:00Z</time>
      </trkpt>
      <trkpt lat="43.49737" lon="6.80431">
        <ele>387.55</ele>
        <time>2011-04-10T07:58:15Z</time>
      </trkpt>
      <trkpt lat="43.49742" lon="6.80447">
        <ele>388.03</ele>
        <time>2011-04-10T07:58:28Z</time>
      </trkpt>
      <trkpt lat="43.49748" lon="6.80457">
        <ele>388.99</ele>
        <time>2011-04-10T07:58:41Z</time>
      </trkpt>
      <trkpt lat="43.49749" lon="6.80458">
        <ele>388.99</ele>
        <time>2011-04-10T07:58:42Z</time>
      </trkpt>
      <trkpt lat="43.49752" lon="6.80466">
        <ele>389.47</ele>
        <time>2011-04-10T07:58:49Z</time>
      </trkpt>
      <trkpt lat="43.49754" lon="6.8047">
        <ele>388.99</ele>
        <time>2011-04-10T07:58:52Z</time>
      </trkpt>
      <trkpt lat="43.49756" lon="6.80479">
        <ele>389.47</ele>
        <time>2011-04-10T07:58:59Z</time>
      </trkpt>
      <trkpt lat="43.49761" lon="6.80508">
        <ele>389.95</ele>
        <time>2011-04-10T07:59:17Z</time>
      </trkpt>
      <trkpt lat="43.49766" lon="6.80529">
        <ele>389.95</ele>
        <time>2011-04-10T07:59:31Z</time>
      </trkpt>
      <trkpt lat="43.49771" lon="6.80545">
        <ele>388.03</ele>
        <time>2011-04-10T07:59:45Z</time>
      </trkpt>
      <trkpt lat="43.49772" lon="6.80549">
        <ele>387.07</ele>
        <time>2011-04-10T07:59:49Z</time>
      </trkpt>
      <trkpt lat="43.49764" lon="6.80578">
        <ele>385.15</ele>
        <time>2011-04-10T08:00:06Z</time>
      </trkpt>
      <trkpt lat="43.49763" lon="6.80587">
        <ele>385.15</ele>
        <time>2011-04-10T08:00:11Z</time>
      </trkpt>
      <trkpt lat="43.4977" lon="6.806">
        <ele>384.66</ele>
        <time>2011-04-10T08:00:23Z</time>
      </trkpt>
      <trkpt lat="43.49776" lon="6.80622">
        <ele>383.22</ele>
        <time>2011-04-10T08:00:41Z</time>
      </trkpt>
      <trkpt lat="43.49776" lon="6.8064">
        <ele>382.74</ele>
        <time>2011-04-10T08:00:56Z</time>
      </trkpt>
      <trkpt lat="43.49777" lon="6.80642">
        <ele>383.22</ele>
        <time>2011-04-10T08:00:59Z</time>
      </trkpt>
      <trkpt lat="43.49777" lon="6.80647">
        <ele>382.74</ele>
        <time>2011-04-10T08:01:02Z</time>
      </trkpt>
      <trkpt lat="43.49778" lon="6.80652">
        <ele>382.74</ele>
        <time>2011-04-10T08:01:06Z</time>
      </trkpt>
      <trkpt lat="43.4978" lon="6.80663">
        <ele>383.22</ele>
        <time>2011-04-10T08:01:14Z</time>
      </trkpt>
      <trkpt lat="43.49785" lon="6.80674">
        <ele>382.74</ele>
        <time>2011-04-10T08:01:21Z</time>
      </trkpt>
      <trkpt lat="43.49797" lon="6.80689">
        <ele>383.22</ele>
        <time>2011-04-10T08:01:36Z</time>
      </trkpt>
      <trkpt lat="43.498" lon="6.80694">
        <ele>383.22</ele>
        <time>2011-04-10T08:01:41Z</time>
      </trkpt>
      <trkpt lat="43.49801" lon="6.80697">
        <ele>383.7</ele>
        <time>2011-04-10T08:01:43Z</time>
      </trkpt>
      <trkpt lat="43.49806" lon="6.80706">
        <ele>383.22</ele>
        <time>2011-04-10T08:01:51Z</time>
      </trkpt>
      <trkpt lat="43.4981" lon="6.80709">
        <ele>383.7</ele>
        <time>2011-04-10T08:01:55Z</time>
      </trkpt>
      <trkpt lat="43.49818" lon="6.80727">
        <ele>383.7</ele>
        <time>2011-04-10T08:02:11Z</time>
      </trkpt>
      <trkpt lat="43.49822" lon="6.80734">
        <ele>384.18</ele>
        <time>2011-04-10T08:02:17Z</time>
      </trkpt>
      <trkpt lat="43.49826" lon="6.80744">
        <ele>384.66</ele>
        <time>2011-04-10T08:02:23Z</time>
      </trkpt>
      <trkpt lat="43.49836" lon="6.80761">
        <ele>384.18</ele>
        <time>2011-04-10T08:02:38Z</time>
      </trkpt>
      <trkpt lat="43.49839" lon="6.80763">
        <ele>384.18</ele>
        <time>2011-04-10T08:02:41Z</time>
      </trkpt>
      <trkpt lat="43.49841" lon="6.80766">
        <ele>384.18</ele>
        <time>2011-04-10T08:02:43Z</time>
      </trkpt>
      <trkpt lat="43.49844" lon="6.80773">
        <ele>385.15</ele>
        <time>2011-04-10T08:02:50Z</time>
      </trkpt>
      <trkpt lat="43.49854" lon="6.80795">
        <ele>385.15</ele>
        <time>2011-04-10T08:03:06Z</time>
      </trkpt>
      <trkpt lat="43.49859" lon="6.80805">
        <ele>385.63</ele>
        <time>2011-04-10T08:03:14Z</time>
      </trkpt>
      <trkpt lat="43.49861" lon="6.8081">
        <ele>385.63</ele>
        <time>2011-04-10T08:03:18Z</time>
      </trkpt>
      <trkpt lat="43.49863" lon="6.80813">
        <ele>385.63</ele>
        <time>2011-04-10T08:03:21Z</time>
      </trkpt>
      <trkpt lat="43.49865" lon="6.80815">
        <ele>386.11</ele>
        <time>2011-04-10T08:03:24Z</time>
      </trkpt>
      <trkpt lat="43.49877" lon="6.80832">
        <ele>386.11</ele>
        <time>2011-04-10T08:03:39Z</time>
      </trkpt>
      <trkpt lat="43.49878" lon="6.80834">
        <ele>386.11</ele>
        <time>2011-04-10T08:03:41Z</time>
      </trkpt>
      <trkpt lat="43.49886" lon="6.8085">
        <ele>387.07</ele>
        <time>2011-04-10T08:03:54Z</time>
      </trkpt>
      <trkpt lat="43.49894" lon="6.80866">
        <ele>388.51</ele>
        <time>2011-04-10T08:04:08Z</time>
      </trkpt>
      <trkpt lat="43.49896" lon="6.80868">
        <ele>388.99</ele>
        <time>2011-04-10T08:04:10Z</time>
      </trkpt>
      <trkpt lat="43.49906" lon="6.80887">
        <ele>389.47</ele>
        <time>2011-04-10T08:04:26Z</time>
      </trkpt>
      <trkpt lat="43.49912" lon="6.80899">
        <ele>390.91</ele>
        <time>2011-04-10T08:04:37Z</time>
      </trkpt>
      <trkpt lat="43.49914" lon="6.80906">
        <ele>390.43</ele>
        <time>2011-04-10T08:04:41Z</time>
      </trkpt>
      <trkpt lat="43.4992" lon="6.80929">
        <ele>391.87</ele>
        <time>2011-04-10T08:04:57Z</time>
      </trkpt>
      <trkpt lat="43.49921" lon="6.80949">
        <ele>391.87</ele>
        <time>2011-04-10T08:05:11Z</time>
      </trkpt>
      <trkpt lat="43.4993" lon="6.80969">
        <ele>392.84</ele>
        <time>2011-04-10T08:05:27Z</time>
      </trkpt>
      <trkpt lat="43.49941" lon="6.80984">
        <ele>394.28</ele>
        <time>2011-04-10T08:05:43Z</time>
      </trkpt>
      <trkpt lat="43.49946" lon="6.80991">
        <ele>394.76</ele>
        <time>2011-04-10T08:05:57Z</time>
      </trkpt>
      <trkpt lat="43.49947" lon="6.80991">
        <ele>394.76</ele>
        <time>2011-04-10T08:06:03Z</time>
      </trkpt>
      <trkpt lat="43.49952" lon="6.80994">
        <ele>395.72</ele>
        <time>2011-04-10T08:06:08Z</time>
      </trkpt>
      <trkpt lat="43.49954" lon="6.80994">
        <ele>396.2</ele>
        <time>2011-04-10T08:06:10Z</time>
      </trkpt>
      <trkpt lat="43.49955" lon="6.80996">
        <ele>396.2</ele>
        <time>2011-04-10T08:06:12Z</time>
      </trkpt>
      <trkpt lat="43.49962" lon="6.81001">
        <ele>396.68</ele>
        <time>2011-04-10T08:06:20Z</time>
      </trkpt>
      <trkpt lat="43.49965" lon="6.81002">
        <ele>397.16</ele>
        <time>2011-04-10T08:06:22Z</time>
      </trkpt>
      <trkpt lat="43.49974" lon="6.81015">
        <ele>399.57</ele>
        <time>2011-04-10T08:06:36Z</time>
      </trkpt>
      <trkpt lat="43.49977" lon="6.81018">
        <ele>399.08</ele>
        <time>2011-04-10T08:06:40Z</time>
      </trkpt>
      <trkpt lat="43.49983" lon="6.81023">
        <ele>400.53</ele>
        <time>2011-04-10T08:06:47Z</time>
      </trkpt>
      <trkpt lat="43.49987" lon="6.81027">
        <ele>401.49</ele>
        <time>2011-04-10T08:06:53Z</time>
      </trkpt>
      <trkpt lat="43.5" lon="6.81037">
        <ele>402.93</ele>
        <time>2011-04-10T08:07:08Z</time>
      </trkpt>
      <trkpt lat="43.50011" lon="6.81041">
        <ele>404.85</ele>
        <time>2011-04-10T08:07:22Z</time>
      </trkpt>
      <trkpt lat="43.50021" lon="6.81044">
        <ele>406.29</ele>
        <time>2011-04-10T08:07:35Z</time>
      </trkpt>
      <trkpt lat="43.50036" lon="6.81049">
        <ele>408.7</ele>
        <time>2011-04-10T08:07:51Z</time>
      </trkpt>
      <trkpt lat="43.50048" lon="6.8105">
        <ele>410.62</ele>
        <time>2011-04-10T08:08:05Z</time>
      </trkpt>
      <trkpt lat="43.50059" lon="6.8105">
        <ele>412.06</ele>
        <time>2011-04-10T08:08:19Z</time>
      </trkpt>
      <trkpt lat="43.50067" lon="6.81047">
        <ele>413.02</ele>
        <time>2011-04-10T08:08:27Z</time>
      </trkpt>
      <trkpt lat="43.50072" lon="6.81046">
        <ele>413.5</ele>
        <time>2011-04-10T08:08:32Z</time>
      </trkpt>
      <trkpt lat="43.50083" lon="6.81043">
        <ele>416.39</ele>
        <time>2011-04-10T08:08:45Z</time>
      </trkpt>
      <trkpt lat="43.50096" lon="6.81041">
        <ele>417.83</ele>
        <time>2011-04-10T08:09:00Z</time>
      </trkpt>
      <trkpt lat="43.501" lon="6.81039">
        <ele>418.31</ele>
        <time>2011-04-10T08:09:06Z</time>
      </trkpt>
      <trkpt lat="43.50103" lon="6.81035">
        <ele>419.27</ele>
        <time>2011-04-10T08:09:11Z</time>
      </trkpt>
      <trkpt lat="43.50114" lon="6.81031">
        <ele>421.19</ele>
        <time>2011-04-10T08:09:23Z</time>
      </trkpt>
      <trkpt lat="43.50118" lon="6.81029">
        <ele>421.19</ele>
        <time>2011-04-10T08:09:27Z</time>
      </trkpt>
      <trkpt lat="43.5012" lon="6.81027">
        <ele>422.16</ele>
        <time>2011-04-10T08:09:30Z</time>
      </trkpt>
      <trkpt lat="43.50132" lon="6.81022">
        <ele>423.6</ele>
        <time>2011-04-10T08:09:44Z</time>
      </trkpt>
      <trkpt lat="43.50135" lon="6.81021">
        <ele>424.08</ele>
        <time>2011-04-10T08:09:46Z</time>
      </trkpt>
      <trkpt lat="43.5014" lon="6.81021">
        <ele>424.56</ele>
        <time>2011-04-10T08:09:51Z</time>
      </trkpt>
      <trkpt lat="43.50147" lon="6.81018">
        <ele>425.04</ele>
        <time>2011-04-10T08:09:59Z</time>
      </trkpt>
      <trkpt lat="43.50151" lon="6.81017">
        <ele>425.04</ele>
        <time>2011-04-10T08:10:03Z</time>
      </trkpt>
      <trkpt lat="43.5016" lon="6.81014">
        <ele>426.96</ele>
        <time>2011-04-10T08:10:15Z</time>
      </trkpt>
      <trkpt lat="43.50176" lon="6.8101">
        <ele>429.37</ele>
        <time>2011-04-10T08:10:33Z</time>
      </trkpt>
      <trkpt lat="43.50185" lon="6.81009">
        <ele>430.33</ele>
        <time>2011-04-10T08:10:45Z</time>
      </trkpt>
      <trkpt lat="43.50198" lon="6.81009">
        <ele>432.73</ele>
        <time>2011-04-10T08:10:59Z</time>
      </trkpt>
      <trkpt lat="43.50209" lon="6.81008">
        <ele>433.69</ele>
        <time>2011-04-10T08:11:13Z</time>
      </trkpt>
      <trkpt lat="43.5022" lon="6.81005">
        <ele>435.61</ele>
        <time>2011-04-10T08:11:25Z</time>
      </trkpt>
      <trkpt lat="43.5023" lon="6.81006">
        <ele>437.06</ele>
        <time>2011-04-10T08:11:36Z</time>
      </trkpt>
      <trkpt lat="43.5024" lon="6.81001">
        <ele>439.46</ele>
        <time>2011-04-10T08:11:49Z</time>
      </trkpt>
      <trkpt lat="43.50246" lon="6.81">
        <ele>439.94</ele>
        <time>2011-04-10T08:11:57Z</time>
      </trkpt>
      <trkpt lat="43.50254" lon="6.80997">
        <ele>441.38</ele>
        <time>2011-04-10T08:12:06Z</time>
      </trkpt>
      <trkpt lat="43.50255" lon="6.80996">
        <ele>441.38</ele>
        <time>2011-04-10T08:12:08Z</time>
      </trkpt>
      <trkpt lat="43.5027" lon="6.80992">
        <ele>443.79</ele>
        <time>2011-04-10T08:12:23Z</time>
      </trkpt>
      <trkpt lat="43.50282" lon="6.80992">
        <ele>445.23</ele>
        <time>2011-04-10T08:12:37Z</time>
      </trkpt>
      <trkpt lat="43.50292" lon="6.8099">
        <ele>447.15</ele>
        <time>2011-04-10T08:12:49Z</time>
      </trkpt>
      <trkpt lat="43.50303" lon="6.80992">
        <ele>449.07</ele>
        <time>2011-04-10T08:13:00Z</time>
      </trkpt>
      <trkpt lat="43.50314" lon="6.80996">
        <ele>450.52</ele>
        <time>2011-04-10T08:13:13Z</time>
      </trkpt>
      <trkpt lat="43.50326" lon="6.80997">
        <ele>452.44</ele>
        <time>2011-04-10T08:13:26Z</time>
      </trkpt>
      <trkpt lat="43.50336" lon="6.80998">
        <ele>454.36</ele>
        <time>2011-04-10T08:13:38Z</time>
      </trkpt>
      <trkpt lat="43.50346" lon="6.81005">
        <ele>456.28</ele>
        <time>2011-04-10T08:13:51Z</time>
      </trkpt>
      <trkpt lat="43.50355" lon="6.81011">
        <ele>457.72</ele>
        <time>2011-04-10T08:14:04Z</time>
      </trkpt>
      <trkpt lat="43.50361" lon="6.81017">
        <ele>459.17</ele>
        <time>2011-04-10T08:14:16Z</time>
      </trkpt>
      <trkpt lat="43.50362" lon="6.81018">
        <ele>458.69</ele>
        <time>2011-04-10T08:14:18Z</time>
      </trkpt>
      <trkpt lat="43.50364" lon="6.81022">
        <ele>459.65</ele>
        <time>2011-04-10T08:14:35Z</time>
      </trkpt>
      <trkpt lat="43.50364" lon="6.81022">
        <ele>459.65</ele>
        <time>2011-04-10T08:14:58Z</time>
      </trkpt>
      <trkpt lat="43.50365" lon="6.81023">
        <ele>460.13</ele>
        <time>2011-04-10T08:15:14Z</time>
      </trkpt>
      <trkpt lat="43.50367" lon="6.81023">
        <ele>460.13</ele>
        <time>2011-04-10T08:15:29Z</time>
      </trkpt>
      <trkpt lat="43.50375" lon="6.81034">
        <ele>462.05</ele>
        <time>2011-04-10T08:15:44Z</time>
      </trkpt>
      <trkpt lat="43.50382" lon="6.81046">
        <ele>463.97</ele>
        <time>2011-04-10T08:15:58Z</time>
      </trkpt>
      <trkpt lat="43.50388" lon="6.81056">
        <ele>465.42</ele>
        <time>2011-04-10T08:16:12Z</time>
      </trkpt>
      <trkpt lat="43.50391" lon="6.81066">
        <ele>466.86</ele>
        <time>2011-04-10T08:16:28Z</time>
      </trkpt>
      <trkpt lat="43.50397" lon="6.81082">
        <ele>469.26</ele>
        <time>2011-04-10T08:16:44Z</time>
      </trkpt>
      <trkpt lat="43.504" lon="6.81096">
        <ele>471.18</ele>
        <time>2011-04-10T08:16:56Z</time>
      </trkpt>
      <trkpt lat="43.50404" lon="6.8111">
        <ele>472.14</ele>
        <time>2011-04-10T08:17:09Z</time>
      </trkpt>
      <trkpt lat="43.50402" lon="6.81124">
        <ele>474.07</ele>
        <time>2011-04-10T08:17:22Z</time>
      </trkpt>
      <trkpt lat="43.50401" lon="6.81139">
        <ele>476.47</ele>
        <time>2011-04-10T08:17:36Z</time>
      </trkpt>
      <trkpt lat="43.50398" lon="6.81153">
        <ele>476.47</ele>
        <time>2011-04-10T08:17:51Z</time>
      </trkpt>
      <trkpt lat="43.50398" lon="6.81159">
        <ele>475.99</ele>
        <time>2011-04-10T08:17:58Z</time>
      </trkpt>
      <trkpt lat="43.50395" lon="6.81167">
        <ele>479.35</ele>
        <time>2011-04-10T08:18:06Z</time>
      </trkpt>
      <trkpt lat="43.50393" lon="6.81187">
        <ele>480.8</ele>
        <time>2011-04-10T08:18:21Z</time>
      </trkpt>
      <trkpt lat="43.50393" lon="6.81197">
        <ele>482.24</ele>
        <time>2011-04-10T08:18:29Z</time>
      </trkpt>
      <trkpt lat="43.50392" lon="6.81209">
        <ele>483.68</ele>
        <time>2011-04-10T08:18:41Z</time>
      </trkpt>
      <trkpt lat="43.50393" lon="6.81223">
        <ele>486.08</ele>
        <time>2011-04-10T08:18:54Z</time>
      </trkpt>
      <trkpt lat="43.5039" lon="6.81228">
        <ele>487.53</ele>
        <time>2011-04-10T08:19:03Z</time>
      </trkpt>
      <trkpt lat="43.50383" lon="6.81218">
        <ele>488.49</ele>
        <time>2011-04-10T08:19:13Z</time>
      </trkpt>
      <trkpt lat="43.50378" lon="6.81203">
        <ele>490.41</ele>
        <time>2011-04-10T08:19:29Z</time>
      </trkpt>
      <trkpt lat="43.50374" lon="6.81189">
        <ele>492.33</ele>
        <time>2011-04-10T08:19:44Z</time>
      </trkpt>
      <trkpt lat="43.50374" lon="6.81186">
        <ele>492.81</ele>
        <time>2011-04-10T08:19:47Z</time>
      </trkpt>
      <trkpt lat="43.50369" lon="6.81169">
        <ele>494.74</ele>
        <time>2011-04-10T08:20:01Z</time>
      </trkpt>
      <trkpt lat="43.50365" lon="6.81156">
        <ele>496.18</ele>
        <time>2011-04-10T08:20:15Z</time>
      </trkpt>
      <trkpt lat="43.50363" lon="6.8115">
        <ele>497.62</ele>
        <time>2011-04-10T08:20:20Z</time>
      </trkpt>
      <trkpt lat="43.50354" lon="6.81135">
        <ele>499.54</ele>
        <time>2011-04-10T08:20:37Z</time>
      </trkpt>
      <trkpt lat="43.50354" lon="6.81134">
        <ele>500.5</ele>
        <time>2011-04-10T08:20:40Z</time>
      </trkpt>
      <trkpt lat="43.50344" lon="6.81121">
        <ele>502.43</ele>
        <time>2011-04-10T08:20:56Z</time>
      </trkpt>
      <trkpt lat="43.50333" lon="6.81117">
        <ele>504.35</ele>
        <time>2011-04-10T08:21:10Z</time>
      </trkpt>
      <trkpt lat="43.5033" lon="6.81116">
        <ele>504.83</ele>
        <time>2011-04-10T08:21:15Z</time>
      </trkpt>
      <trkpt lat="43.50325" lon="6.81117">
        <ele>505.79</ele>
        <time>2011-04-10T08:21:22Z</time>
      </trkpt>
      <trkpt lat="43.50324" lon="6.81118">
        <ele>505.79</ele>
        <time>2011-04-10T08:21:24Z</time>
      </trkpt>
      <trkpt lat="43.50315" lon="6.81128">
        <ele>507.23</ele>
        <time>2011-04-10T08:21:38Z</time>
      </trkpt>
      <trkpt lat="43.50309" lon="6.81142">
        <ele>509.16</ele>
        <time>2011-04-10T08:21:52Z</time>
      </trkpt>
      <trkpt lat="43.50303" lon="6.81148">
        <ele>510.6</ele>
        <time>2011-04-10T08:22:02Z</time>
      </trkpt>
      <trkpt lat="43.50298" lon="6.81157">
        <ele>512.04</ele>
        <time>2011-04-10T08:22:12Z</time>
      </trkpt>
      <trkpt lat="43.50293" lon="6.81166">
        <ele>513.48</ele>
        <time>2011-04-10T08:22:22Z</time>
      </trkpt>
      <trkpt lat="43.50292" lon="6.81169">
        <ele>513.48</ele>
        <time>2011-04-10T08:22:25Z</time>
      </trkpt>
      <trkpt lat="43.50292" lon="6.81172">
        <ele>513.96</ele>
        <time>2011-04-10T08:22:27Z</time>
      </trkpt>
      <trkpt lat="43.50288" lon="6.8118">
        <ele>515.88</ele>
        <time>2011-04-10T08:22:38Z</time>
      </trkpt>
      <trkpt lat="43.50284" lon="6.81185">
        <ele>516.85</ele>
        <time>2011-04-10T08:22:45Z</time>
      </trkpt>
      <trkpt lat="43.50275" lon="6.81197">
        <ele>519.73</ele>
        <time>2011-04-10T08:23:00Z</time>
      </trkpt>
      <trkpt lat="43.50271" lon="6.81205">
        <ele>520.21</ele>
        <time>2011-04-10T08:23:08Z</time>
      </trkpt>
      <trkpt lat="43.50267" lon="6.81211">
        <ele>520.69</ele>
        <time>2011-04-10T08:23:14Z</time>
      </trkpt>
      <trkpt lat="43.50266" lon="6.81222">
        <ele>521.65</ele>
        <time>2011-04-10T08:23:25Z</time>
      </trkpt>
      <trkpt lat="43.50269" lon="6.81233">
        <ele>523.09</ele>
        <time>2011-04-10T08:23:35Z</time>
      </trkpt>
      <trkpt lat="43.50268" lon="6.8124">
        <ele>524.06</ele>
        <time>2011-04-10T08:23:42Z</time>
      </trkpt>
      <trkpt lat="43.50265" lon="6.81255">
        <ele>525.98</ele>
        <time>2011-04-10T08:23:57Z</time>
      </trkpt>
      <trkpt lat="43.50263" lon="6.81263">
        <ele>527.9</ele>
        <time>2011-04-10T08:24:10Z</time>
      </trkpt>
      <trkpt lat="43.50263" lon="6.81272">
        <ele>528.38</ele>
        <time>2011-04-10T08:24:21Z</time>
      </trkpt>
      <trkpt lat="43.50261" lon="6.81274">
        <ele>528.86</ele>
        <time>2011-04-10T08:24:23Z</time>
      </trkpt>
      <trkpt lat="43.50261" lon="6.81276">
        <ele>528.86</ele>
        <time>2011-04-10T08:24:25Z</time>
      </trkpt>
      <trkpt lat="43.50258" lon="6.81289">
        <ele>530.79</ele>
        <time>2011-04-10T08:24:38Z</time>
      </trkpt>
      <trkpt lat="43.50256" lon="6.81307">
        <ele>533.19</ele>
        <time>2011-04-10T08:24:53Z</time>
      </trkpt>
      <trkpt lat="43.50258" lon="6.81315">
        <ele>534.15</ele>
        <time>2011-04-10T08:25:06Z</time>
      </trkpt>
      <trkpt lat="43.50259" lon="6.81319">
        <ele>533.67</ele>
        <time>2011-04-10T08:25:20Z</time>
      </trkpt>
      <trkpt lat="43.50261" lon="6.81322">
        <ele>533.67</ele>
        <time>2011-04-10T08:25:40Z</time>
      </trkpt>
      <trkpt lat="43.50262" lon="6.81322">
        <ele>534.63</ele>
        <time>2011-04-10T08:25:41Z</time>
      </trkpt>
      <trkpt lat="43.50267" lon="6.8133">
        <ele>535.11</ele>
        <time>2011-04-10T08:25:49Z</time>
      </trkpt>
      <trkpt lat="43.50271" lon="6.81347">
        <ele>537.99</ele>
        <time>2011-04-10T08:26:03Z</time>
      </trkpt>
      <trkpt lat="43.50277" lon="6.81366">
        <ele>538.96</ele>
        <time>2011-04-10T08:26:19Z</time>
      </trkpt>
      <trkpt lat="43.50284" lon="6.8138">
        <ele>540.4</ele>
        <time>2011-04-10T08:26:33Z</time>
      </trkpt>
      <trkpt lat="43.50289" lon="6.81398">
        <ele>542.8</ele>
        <time>2011-04-10T08:26:48Z</time>
      </trkpt>
      <trkpt lat="43.50289" lon="6.81399">
        <ele>542.8</ele>
        <time>2011-04-10T08:26:49Z</time>
      </trkpt>
      <trkpt lat="43.50293" lon="6.81414">
        <ele>543.76</ele>
        <time>2011-04-10T08:27:02Z</time>
      </trkpt>
      <trkpt lat="43.50296" lon="6.81422">
        <ele>545.2</ele>
        <time>2011-04-10T08:27:10Z</time>
      </trkpt>
      <trkpt lat="43.50297" lon="6.81436">
        <ele>546.65</ele>
        <time>2011-04-10T08:27:24Z</time>
      </trkpt>
      <trkpt lat="43.50297" lon="6.81443">
        <ele>547.13</ele>
        <time>2011-04-10T08:27:37Z</time>
      </trkpt>
      <trkpt lat="43.50297" lon="6.81443">
        <ele>546.65</ele>
        <time>2011-04-10T08:27:59Z</time>
      </trkpt>
      <trkpt lat="43.50297" lon="6.81443">
        <ele>547.13</ele>
        <time>2011-04-10T08:28:25Z</time>
      </trkpt>
      <trkpt lat="43.50298" lon="6.8145">
        <ele>548.09</ele>
        <time>2011-04-10T08:28:36Z</time>
      </trkpt>
      <trkpt lat="43.50296" lon="6.81459">
        <ele>549.05</ele>
        <time>2011-04-10T08:28:50Z</time>
      </trkpt>
      <trkpt lat="43.50295" lon="6.81465">
        <ele>550.49</ele>
        <time>2011-04-10T08:28:55Z</time>
      </trkpt>
      <trkpt lat="43.50291" lon="6.81481">
        <ele>551.45</ele>
        <time>2011-04-10T08:29:09Z</time>
      </trkpt>
      <trkpt lat="43.50291" lon="6.81482">
        <ele>550.97</ele>
        <time>2011-04-10T08:29:10Z</time>
      </trkpt>
      <trkpt lat="43.50283" lon="6.81489">
        <ele>553.38</ele>
        <time>2011-04-10T08:29:24Z</time>
      </trkpt>
      <trkpt lat="43.50282" lon="6.8149">
        <ele>553.86</ele>
        <time>2011-04-10T08:29:25Z</time>
      </trkpt>
      <trkpt lat="43.50279" lon="6.81498">
        <ele>554.34</ele>
        <time>2011-04-10T08:29:33Z</time>
      </trkpt>
      <trkpt lat="43.50274" lon="6.81512">
        <ele>556.26</ele>
        <time>2011-04-10T08:29:47Z</time>
      </trkpt>
      <trkpt lat="43.50269" lon="6.81524">
        <ele>558.18</ele>
        <time>2011-04-10T08:30:00Z</time>
      </trkpt>
      <trkpt lat="43.50266" lon="6.81539">
        <ele>559.14</ele>
        <time>2011-04-10T08:30:14Z</time>
      </trkpt>
      <trkpt lat="43.50267" lon="6.81543">
        <ele>558.66</ele>
        <time>2011-04-10T08:30:26Z</time>
      </trkpt>
      <trkpt lat="43.5027" lon="6.81541">
        <ele>559.14</ele>
        <time>2011-04-10T08:30:30Z</time>
      </trkpt>
      <trkpt lat="43.50283" lon="6.8154">
        <ele>560.11</ele>
        <time>2011-04-10T08:30:43Z</time>
      </trkpt>
      <trkpt lat="43.50289" lon="6.81545">
        <ele>560.59</ele>
        <time>2011-04-10T08:30:50Z</time>
      </trkpt>
      <trkpt lat="43.503" lon="6.81551">
        <ele>562.51</ele>
        <time>2011-04-10T08:31:03Z</time>
      </trkpt>
      <trkpt lat="43.50311" lon="6.81553">
        <ele>563.95</ele>
        <time>2011-04-10T08:31:16Z</time>
      </trkpt>
      <trkpt lat="43.50323" lon="6.81558">
        <ele>565.87</ele>
        <time>2011-04-10T08:31:31Z</time>
      </trkpt>
      <trkpt lat="43.50332" lon="6.8156">
        <ele>566.83</ele>
        <time>2011-04-10T08:31:42Z</time>
      </trkpt>
      <trkpt lat="43.5034" lon="6.81565">
        <ele>567.32</ele>
        <time>2011-04-10T08:31:52Z</time>
      </trkpt>
      <trkpt lat="43.50343" lon="6.81568">
        <ele>567.32</ele>
        <time>2011-04-10T08:32:07Z</time>
      </trkpt>
      <trkpt lat="43.50343" lon="6.81569">
        <ele>567.32</ele>
        <time>2011-04-10T08:32:27Z</time>
      </trkpt>
      <trkpt lat="43.50343" lon="6.81571">
        <ele>567.8</ele>
        <time>2011-04-10T08:32:42Z</time>
      </trkpt>
      <trkpt lat="43.50344" lon="6.81578">
        <ele>567.8</ele>
        <time>2011-04-10T08:32:50Z</time>
      </trkpt>
      <trkpt lat="43.50346" lon="6.81584">
        <ele>567.8</ele>
        <time>2011-04-10T08:32:55Z</time>
      </trkpt>
      <trkpt lat="43.50354" lon="6.81593">
        <ele>567.32</ele>
        <time>2011-04-10T08:33:07Z</time>
      </trkpt>
      <trkpt lat="43.50358" lon="6.81606">
        <ele>568.76</ele>
        <time>2011-04-10T08:33:22Z</time>
      </trkpt>
      <trkpt lat="43.50356" lon="6.81609">
        <ele>569.24</ele>
        <time>2011-04-10T08:33:39Z</time>
      </trkpt>
      <trkpt lat="43.50356" lon="6.81609">
        <ele>569.24</ele>
        <time>2011-04-10T08:34:03Z</time>
      </trkpt>
      <trkpt lat="43.50356" lon="6.81609">
        <ele>568.76</ele>
        <time>2011-04-10T08:34:18Z</time>
      </trkpt>
      <trkpt lat="43.50353" lon="6.81619">
        <ele>569.72</ele>
        <time>2011-04-10T08:34:36Z</time>
      </trkpt>
      <trkpt lat="43.50346" lon="6.81633">
        <ele>568.76</ele>
        <time>2011-04-10T08:34:50Z</time>
      </trkpt>
      <trkpt lat="43.50342" lon="6.81635">
        <ele>568.76</ele>
        <time>2011-04-10T08:35:04Z</time>
      </trkpt>
      <trkpt lat="43.50341" lon="6.81635">
        <ele>568.76</ele>
        <time>2011-04-10T08:35:21Z</time>
      </trkpt>
      <trkpt lat="43.5034" lon="6.81636">
        <ele>569.24</ele>
        <time>2011-04-10T08:35:42Z</time>
      </trkpt>
      <trkpt lat="43.50338" lon="6.81637">
        <ele>568.28</ele>
        <time>2011-04-10T08:35:44Z</time>
      </trkpt>
      <trkpt lat="43.50334" lon="6.81636">
        <ele>568.76</ele>
        <time>2011-04-10T08:35:48Z</time>
      </trkpt>
      <trkpt lat="43.50324" lon="6.81627">
        <ele>568.28</ele>
        <time>2011-04-10T08:36:00Z</time>
      </trkpt>
      <trkpt lat="43.50322" lon="6.81624">
        <ele>568.28</ele>
        <time>2011-04-10T08:36:02Z</time>
      </trkpt>
      <trkpt lat="43.50311" lon="6.81617">
        <ele>568.28</ele>
        <time>2011-04-10T08:36:17Z</time>
      </trkpt>
      <trkpt lat="43.50309" lon="6.81617">
        <ele>567.32</ele>
        <time>2011-04-10T08:36:20Z</time>
      </trkpt>
      <trkpt lat="43.50306" lon="6.81625">
        <ele>565.39</ele>
        <time>2011-04-10T08:36:26Z</time>
      </trkpt>
      <trkpt lat="43.50299" lon="6.8164">
        <ele>562.99</ele>
        <time>2011-04-10T08:36:39Z</time>
      </trkpt>
      <trkpt lat="43.50296" lon="6.81659">
        <ele>559.62</ele>
        <time>2011-04-10T08:36:53Z</time>
      </trkpt>
      <trkpt lat="43.50292" lon="6.81682">
        <ele>557.7</ele>
        <time>2011-04-10T08:37:08Z</time>
      </trkpt>
      <trkpt lat="43.50289" lon="6.8169">
        <ele>556.26</ele>
        <time>2011-04-10T08:37:14Z</time>
      </trkpt>
      <trkpt lat="43.50275" lon="6.81711">
        <ele>553.86</ele>
        <time>2011-04-10T08:37:32Z</time>
      </trkpt>
      <trkpt lat="43.50266" lon="6.81726">
        <ele>552.9</ele>
        <time>2011-04-10T08:37:44Z</time>
      </trkpt>
      <trkpt lat="43.50259" lon="6.81737">
        <ele>552.41</ele>
        <time>2011-04-10T08:37:53Z</time>
      </trkpt>
      <trkpt lat="43.50254" lon="6.81765">
        <ele>552.41</ele>
        <time>2011-04-10T08:38:11Z</time>
      </trkpt>
      <trkpt lat="43.50253" lon="6.81771">
        <ele>552.9</ele>
        <time>2011-04-10T08:38:15Z</time>
      </trkpt>
      <trkpt lat="43.50251" lon="6.81795">
        <ele>553.86</ele>
        <time>2011-04-10T08:38:30Z</time>
      </trkpt>
      <trkpt lat="43.50251" lon="6.81819">
        <ele>555.78</ele>
        <time>2011-04-10T08:38:46Z</time>
      </trkpt>
      <trkpt lat="43.50251" lon="6.8183">
        <ele>556.26</ele>
        <time>2011-04-10T08:38:54Z</time>
      </trkpt>
      <trkpt lat="43.50251" lon="6.81833">
        <ele>556.26</ele>
        <time>2011-04-10T08:38:56Z</time>
      </trkpt>
      <trkpt lat="43.50252" lon="6.81856">
        <ele>557.7</ele>
        <time>2011-04-10T08:39:11Z</time>
      </trkpt>
      <trkpt lat="43.50252" lon="6.81865">
        <ele>558.18</ele>
        <time>2011-04-10T08:39:18Z</time>
      </trkpt>
      <trkpt lat="43.50252" lon="6.81879">
        <ele>558.66</ele>
        <time>2011-04-10T08:39:27Z</time>
      </trkpt>
      <trkpt lat="43.50254" lon="6.81889">
        <ele>559.62</ele>
        <time>2011-04-10T08:39:33Z</time>
      </trkpt>
      <trkpt lat="43.50253" lon="6.81906">
        <ele>560.59</ele>
        <time>2011-04-10T08:39:44Z</time>
      </trkpt>
      <trkpt lat="43.50251" lon="6.81927">
        <ele>562.51</ele>
        <time>2011-04-10T08:39:59Z</time>
      </trkpt>
      <trkpt lat="43.50256" lon="6.81948">
        <ele>563.47</ele>
        <time>2011-04-10T08:40:14Z</time>
      </trkpt>
      <trkpt lat="43.50255" lon="6.81972">
        <ele>564.91</ele>
        <time>2011-04-10T08:40:29Z</time>
      </trkpt>
      <trkpt lat="43.50253" lon="6.81999">
        <ele>564.91</ele>
        <time>2011-04-10T08:40:45Z</time>
      </trkpt>
      <trkpt lat="43.50255" lon="6.82019">
        <ele>565.39</ele>
        <time>2011-04-10T08:40:58Z</time>
      </trkpt>
      <trkpt lat="43.5026" lon="6.8204">
        <ele>567.8</ele>
        <time>2011-04-10T08:41:14Z</time>
      </trkpt>
      <trkpt lat="43.50262" lon="6.82049">
        <ele>569.24</ele>
        <time>2011-04-10T08:41:22Z</time>
      </trkpt>
      <trkpt lat="43.50264" lon="6.82054">
        <ele>570.2</ele>
        <time>2011-04-10T08:41:27Z</time>
      </trkpt>
      <trkpt lat="43.50269" lon="6.82069">
        <ele>572.12</ele>
        <time>2011-04-10T08:41:42Z</time>
      </trkpt>
      <trkpt lat="43.5027" lon="6.8207">
        <ele>572.6</ele>
        <time>2011-04-10T08:41:43Z</time>
      </trkpt>
      <trkpt lat="43.50275" lon="6.8208">
        <ele>574.04</ele>
        <time>2011-04-10T08:41:53Z</time>
      </trkpt>
      <trkpt lat="43.50274" lon="6.82086">
        <ele>574.53</ele>
        <time>2011-04-10T08:41:57Z</time>
      </trkpt>
      <trkpt lat="43.50271" lon="6.82084">
        <ele>575.49</ele>
        <time>2011-04-10T08:42:00Z</time>
      </trkpt>
      <trkpt lat="43.50257" lon="6.82076">
        <ele>577.41</ele>
        <time>2011-04-10T08:42:15Z</time>
      </trkpt>
      <trkpt lat="43.50245" lon="6.82066">
        <ele>579.33</ele>
        <time>2011-04-10T08:42:30Z</time>
      </trkpt>
      <trkpt lat="43.50243" lon="6.82063">
        <ele>579.81</ele>
        <time>2011-04-10T08:42:33Z</time>
      </trkpt>
      <trkpt lat="43.50234" lon="6.82051">
        <ele>581.73</ele>
        <time>2011-04-10T08:42:47Z</time>
      </trkpt>
      <trkpt lat="43.5023" lon="6.82051">
        <ele>582.7</ele>
        <time>2011-04-10T08:43:00Z</time>
      </trkpt>
      <trkpt lat="43.50232" lon="6.82066">
        <ele>585.1</ele>
        <time>2011-04-10T08:43:15Z</time>
      </trkpt>
      <trkpt lat="43.50233" lon="6.82073">
        <ele>585.58</ele>
        <time>2011-04-10T08:43:22Z</time>
      </trkpt>
      <trkpt lat="43.50234" lon="6.82076">
        <ele>585.58</ele>
        <time>2011-04-10T08:43:25Z</time>
      </trkpt>
      <trkpt lat="43.5024" lon="6.82088">
        <ele>587.98</ele>
        <time>2011-04-10T08:43:39Z</time>
      </trkpt>
      <trkpt lat="43.50247" lon="6.82105">
        <ele>589.43</ele>
        <time>2011-04-10T08:43:54Z</time>
      </trkpt>
      <trkpt lat="43.50247" lon="6.82106">
        <ele>589.43</ele>
        <time>2011-04-10T08:43:55Z</time>
      </trkpt>
      <trkpt lat="43.50253" lon="6.82114">
        <ele>592.31</ele>
        <time>2011-04-10T08:44:10Z</time>
      </trkpt>
      <trkpt lat="43.50253" lon="6.8212">
        <ele>594.23</ele>
        <time>2011-04-10T08:44:22Z</time>
      </trkpt>
      <trkpt lat="43.50245" lon="6.82122">
        <ele>596.64</ele>
        <time>2011-04-10T08:44:35Z</time>
      </trkpt>
      <trkpt lat="43.50245" lon="6.82129">
        <ele>598.08</ele>
        <time>2011-04-10T08:44:47Z</time>
      </trkpt>
      <trkpt lat="43.50245" lon="6.82135">
        <ele>599.52</ele>
        <time>2011-04-10T08:45:03Z</time>
      </trkpt>
      <trkpt lat="43.50244" lon="6.82139">
        <ele>600.96</ele>
        <time>2011-04-10T08:45:16Z</time>
      </trkpt>
      <trkpt lat="43.5024" lon="6.82141">
        <ele>602.4</ele>
        <time>2011-04-10T08:45:22Z</time>
      </trkpt>
      <trkpt lat="43.50235" lon="6.82141">
        <ele>603.85</ele>
        <time>2011-04-10T08:45:31Z</time>
      </trkpt>
      <trkpt lat="43.50229" lon="6.82142">
        <ele>604.81</ele>
        <time>2011-04-10T08:45:44Z</time>
      </trkpt>
      <trkpt lat="43.50228" lon="6.82144">
        <ele>605.29</ele>
        <time>2011-04-10T08:45:46Z</time>
      </trkpt>
      <trkpt lat="43.50227" lon="6.82148">
        <ele>604.81</ele>
        <time>2011-04-10T08:45:49Z</time>
      </trkpt>
      <trkpt lat="43.50228" lon="6.8216">
        <ele>607.21</ele>
        <time>2011-04-10T08:46:02Z</time>
      </trkpt>
      <trkpt lat="43.50227" lon="6.82166">
        <ele>609.13</ele>
        <time>2011-04-10T08:46:10Z</time>
      </trkpt>
      <trkpt lat="43.50219" lon="6.82171">
        <ele>611.54</ele>
        <time>2011-04-10T08:46:23Z</time>
      </trkpt>
      <trkpt lat="43.50214" lon="6.82177">
        <ele>612.98</ele>
        <time>2011-04-10T08:46:36Z</time>
      </trkpt>
      <trkpt lat="43.50217" lon="6.82184">
        <ele>613.94</ele>
        <time>2011-04-10T08:46:49Z</time>
      </trkpt>
      <trkpt lat="43.50216" lon="6.82184">
        <ele>613.46</ele>
        <time>2011-04-10T08:47:13Z</time>
      </trkpt>
      <trkpt lat="43.50216" lon="6.82184">
        <ele>613.46</ele>
        <time>2011-04-10T08:47:53Z</time>
      </trkpt>
      <trkpt lat="43.50216" lon="6.82183">
        <ele>613.46</ele>
        <time>2011-04-10T08:48:30Z</time>
      </trkpt>
      <trkpt lat="43.50216" lon="6.82183">
        <ele>612.98</ele>
        <time>2011-04-10T08:48:53Z</time>
      </trkpt>
      <trkpt lat="43.50216" lon="6.82183">
        <ele>613.46</ele>
        <time>2011-04-10T08:49:29Z</time>
      </trkpt>
      <trkpt lat="43.50216" lon="6.82183">
        <ele>613.94</ele>
        <time>2011-04-10T08:50:02Z</time>
      </trkpt>
      <trkpt lat="43.50216" lon="6.82183">
        <ele>613.94</ele>
        <time>2011-04-10T08:50:40Z</time>
      </trkpt>
      <trkpt lat="43.50216" lon="6.82183">
        <ele>613.94</ele>
        <time>2011-04-10T08:51:17Z</time>
      </trkpt>
      <trkpt lat="43.50216" lon="6.82183">
        <ele>613.94</ele>
        <time>2011-04-10T08:51:55Z</time>
      </trkpt>
      <trkpt lat="43.50216" lon="6.82183">
        <ele>613.94</ele>
        <time>2011-04-10T08:52:29Z</time>
      </trkpt>
      <trkpt lat="43.50216" lon="6.82182">
        <ele>613.46</ele>
        <time>2011-04-10T08:53:04Z</time>
      </trkpt>
      <trkpt lat="43.50216" lon="6.82182">
        <ele>613.46</ele>
        <time>2011-04-10T08:53:47Z</time>
      </trkpt>
      <trkpt lat="43.50216" lon="6.82182">
        <ele>613.94</ele>
        <time>2011-04-10T08:54:25Z</time>
      </trkpt>
      <trkpt lat="43.50217" lon="6.82182">
        <ele>613.94</ele>
        <time>2011-04-10T08:55:01Z</time>
      </trkpt>
      <trkpt lat="43.50217" lon="6.82182">
        <ele>613.94</ele>
        <time>2011-04-10T08:55:42Z</time>
      </trkpt>
      <trkpt lat="43.50216" lon="6.82182">
        <ele>613.94</ele>
        <time>2011-04-10T08:56:25Z</time>
      </trkpt>
      <trkpt lat="43.50216" lon="6.82182">
        <ele>613.94</ele>
        <time>2011-04-10T08:57:01Z</time>
      </trkpt>
      <trkpt lat="43.50216" lon="6.82181">
        <ele>613.94</ele>
        <time>2011-04-10T08:57:48Z</time>
      </trkpt>
      <trkpt lat="43.50216" lon="6.82182">
        <ele>613.94</ele>
        <time>2011-04-10T08:58:29Z</time>
      </trkpt>
      <trkpt lat="43.50216" lon="6.82182">
        <ele>613.94</ele>
        <time>2011-04-10T08:58:59Z</time>
      </trkpt>
      <trkpt lat="43.50216" lon="6.82182">
        <ele>613.46</ele>
        <time>2011-04-10T08:59:25Z</time>
      </trkpt>
      <trkpt lat="43.50216" lon="6.82182">
        <ele>614.42</ele>
        <time>2011-04-10T08:59:50Z</time>
      </trkpt>
      <trkpt lat="43.50216" lon="6.82182">
        <ele>614.9</ele>
        <time>2011-04-10T09:00:15Z</time>
      </trkpt>
      <trkpt lat="43.50215" lon="6.82182">
        <ele>614.42</ele>
        <time>2011-04-10T09:00:29Z</time>
      </trkpt>
      <trkpt lat="43.50214" lon="6.8218">
        <ele>614.42</ele>
        <time>2011-04-10T09:00:47Z</time>
      </trkpt>
      <trkpt lat="43.50213" lon="6.8218">
        <ele>612.5</ele>
        <time>2011-04-10T09:01:02Z</time>
      </trkpt>
      <trkpt lat="43.50209" lon="6.82185">
        <ele>611.06</ele>
        <time>2011-04-10T09:01:15Z</time>
      </trkpt>
      <trkpt lat="43.50207" lon="6.82184">
        <ele>609.61</ele>
        <time>2011-04-10T09:01:27Z</time>
      </trkpt>
      <trkpt lat="43.50207" lon="6.82193">
        <ele>607.21</ele>
        <time>2011-04-10T09:01:40Z</time>
      </trkpt>
      <trkpt lat="43.50207" lon="6.82195">
        <ele>607.21</ele>
        <time>2011-04-10T09:01:42Z</time>
      </trkpt>
      <trkpt lat="43.50206" lon="6.82198">
        <ele>606.25</ele>
        <time>2011-04-10T09:01:44Z</time>
      </trkpt>
      <trkpt lat="43.50206" lon="6.82206">
        <ele>606.25</ele>
        <time>2011-04-10T09:01:53Z</time>
      </trkpt>
      <trkpt lat="43.50207" lon="6.8221">
        <ele>605.77</ele>
        <time>2011-04-10T09:01:56Z</time>
      </trkpt>
      <trkpt lat="43.50205" lon="6.82218">
        <ele>604.33</ele>
        <time>2011-04-10T09:02:04Z</time>
      </trkpt>
      <trkpt lat="43.502" lon="6.82234">
        <ele>600.96</ele>
        <time>2011-04-10T09:02:18Z</time>
      </trkpt>
      <trkpt lat="43.50195" lon="6.82247">
        <ele>598.56</ele>
        <time>2011-04-10T09:02:32Z</time>
      </trkpt>
      <trkpt lat="43.50193" lon="6.82258">
        <ele>598.08</ele>
        <time>2011-04-10T09:02:44Z</time>
      </trkpt>
      <trkpt lat="43.50195" lon="6.82268">
        <ele>597.12</ele>
        <time>2011-04-10T09:02:52Z</time>
      </trkpt>
      <trkpt lat="43.5019" lon="6.8228">
        <ele>594.71</ele>
        <time>2011-04-10T09:03:05Z</time>
      </trkpt>
      <trkpt lat="43.5019" lon="6.82281">
        <ele>594.71</ele>
        <time>2011-04-10T09:03:09Z</time>
      </trkpt>
      <trkpt lat="43.50189" lon="6.82285">
        <ele>593.75</ele>
        <time>2011-04-10T09:03:11Z</time>
      </trkpt>
      <trkpt lat="43.50195" lon="6.82296">
        <ele>591.35</ele>
        <time>2011-04-10T09:03:25Z</time>
      </trkpt>
      <trkpt lat="43.50199" lon="6.82305">
        <ele>589.91</ele>
        <time>2011-04-10T09:03:35Z</time>
      </trkpt>
      <trkpt lat="43.50202" lon="6.82312">
        <ele>588.46</ele>
        <time>2011-04-10T09:03:43Z</time>
      </trkpt>
      <trkpt lat="43.50205" lon="6.82325">
        <ele>586.06</ele>
        <time>2011-04-10T09:03:55Z</time>
      </trkpt>
      <trkpt lat="43.50208" lon="6.82333">
        <ele>585.1</ele>
        <time>2011-04-10T09:04:04Z</time>
      </trkpt>
      <trkpt lat="43.5021" lon="6.82346">
        <ele>582.7</ele>
        <time>2011-04-10T09:04:16Z</time>
      </trkpt>
      <trkpt lat="43.5021" lon="6.82363">
        <ele>579.81</ele>
        <time>2011-04-10T09:04:31Z</time>
      </trkpt>
      <trkpt lat="43.50209" lon="6.82374">
        <ele>577.89</ele>
        <time>2011-04-10T09:04:45Z</time>
      </trkpt>
      <trkpt lat="43.50209" lon="6.82376">
        <ele>577.89</ele>
        <time>2011-04-10T09:04:46Z</time>
      </trkpt>
      <trkpt lat="43.5021" lon="6.82382">
        <ele>576.93</ele>
        <time>2011-04-10T09:04:50Z</time>
      </trkpt>
      <trkpt lat="43.50209" lon="6.82402">
        <ele>573.56</ele>
        <time>2011-04-10T09:05:05Z</time>
      </trkpt>
      <trkpt lat="43.50208" lon="6.82409">
        <ele>572.12</ele>
        <time>2011-04-10T09:05:10Z</time>
      </trkpt>
      <trkpt lat="43.50208" lon="6.82412">
        <ele>572.12</ele>
        <time>2011-04-10T09:05:12Z</time>
      </trkpt>
      <trkpt lat="43.50208" lon="6.82419">
        <ele>571.16</ele>
        <time>2011-04-10T09:05:18Z</time>
      </trkpt>
      <trkpt lat="43.50205" lon="6.8243">
        <ele>569.24</ele>
        <time>2011-04-10T09:05:27Z</time>
      </trkpt>
      <trkpt lat="43.50203" lon="6.82433">
        <ele>568.76</ele>
        <time>2011-04-10T09:05:30Z</time>
      </trkpt>
      <trkpt lat="43.50198" lon="6.82438">
        <ele>568.76</ele>
        <time>2011-04-10T09:05:35Z</time>
      </trkpt>
      <trkpt lat="43.5019" lon="6.82444">
        <ele>567.32</ele>
        <time>2011-04-10T09:05:44Z</time>
      </trkpt>
      <trkpt lat="43.5018" lon="6.8245">
        <ele>566.83</ele>
        <time>2011-04-10T09:05:53Z</time>
      </trkpt>
      <trkpt lat="43.50175" lon="6.82453">
        <ele>566.35</ele>
        <time>2011-04-10T09:05:58Z</time>
      </trkpt>
      <trkpt lat="43.50168" lon="6.82454">
        <ele>565.39</ele>
        <time>2011-04-10T09:06:05Z</time>
      </trkpt>
      <trkpt lat="43.50162" lon="6.82457">
        <ele>565.87</ele>
        <time>2011-04-10T09:06:18Z</time>
      </trkpt>
      <trkpt lat="43.50161" lon="6.82457">
        <ele>565.39</ele>
        <time>2011-04-10T09:06:24Z</time>
      </trkpt>
      <trkpt lat="43.50156" lon="6.82461">
        <ele>564.43</ele>
        <time>2011-04-10T09:06:29Z</time>
      </trkpt>
      <trkpt lat="43.50151" lon="6.82458">
        <ele>563.47</ele>
        <time>2011-04-10T09:06:35Z</time>
      </trkpt>
      <trkpt lat="43.50144" lon="6.82449">
        <ele>562.03</ele>
        <time>2011-04-10T09:06:45Z</time>
      </trkpt>
      <trkpt lat="43.50137" lon="6.8244">
        <ele>560.11</ele>
        <time>2011-04-10T09:06:54Z</time>
      </trkpt>
      <trkpt lat="43.50133" lon="6.82437">
        <ele>559.14</ele>
        <time>2011-04-10T09:06:59Z</time>
      </trkpt>
      <trkpt lat="43.50128" lon="6.82432">
        <ele>558.18</ele>
        <time>2011-04-10T09:07:05Z</time>
      </trkpt>
      <trkpt lat="43.50118" lon="6.82418">
        <ele>555.3</ele>
        <time>2011-04-10T09:07:19Z</time>
      </trkpt>
      <trkpt lat="43.5011" lon="6.82404">
        <ele>553.38</ele>
        <time>2011-04-10T09:07:31Z</time>
      </trkpt>
      <trkpt lat="43.50105" lon="6.82395">
        <ele>551.45</ele>
        <time>2011-04-10T09:07:40Z</time>
      </trkpt>
      <trkpt lat="43.50097" lon="6.82381">
        <ele>549.05</ele>
        <time>2011-04-10T09:07:54Z</time>
      </trkpt>
      <trkpt lat="43.50093" lon="6.82369">
        <ele>547.13</ele>
        <time>2011-04-10T09:08:08Z</time>
      </trkpt>
      <trkpt lat="43.50092" lon="6.8237">
        <ele>546.65</ele>
        <time>2011-04-10T09:08:20Z</time>
      </trkpt>
      <trkpt lat="43.50092" lon="6.82372">
        <ele>546.17</ele>
        <time>2011-04-10T09:08:27Z</time>
      </trkpt>
      <trkpt lat="43.50092" lon="6.82375">
        <ele>545.69</ele>
        <time>2011-04-10T09:08:29Z</time>
      </trkpt>
      <trkpt lat="43.50092" lon="6.82389">
        <ele>543.76</ele>
        <time>2011-04-10T09:08:40Z</time>
      </trkpt>
      <trkpt lat="43.50095" lon="6.82415">
        <ele>540.88</ele>
        <time>2011-04-10T09:08:54Z</time>
      </trkpt>
      <trkpt lat="43.50096" lon="6.82427">
        <ele>538.96</ele>
        <time>2011-04-10T09:09:04Z</time>
      </trkpt>
      <trkpt lat="43.50098" lon="6.82434">
        <ele>537.99</ele>
        <time>2011-04-10T09:09:09Z</time>
      </trkpt>
      <trkpt lat="43.50099" lon="6.82444">
        <ele>536.55</ele>
        <time>2011-04-10T09:09:16Z</time>
      </trkpt>
      <trkpt lat="43.50098" lon="6.8245">
        <ele>535.59</ele>
        <time>2011-04-10T09:09:20Z</time>
      </trkpt>
      <trkpt lat="43.50103" lon="6.82472">
        <ele>532.23</ele>
        <time>2011-04-10T09:09:36Z</time>
      </trkpt>
      <trkpt lat="43.50107" lon="6.8249">
        <ele>530.3</ele>
        <time>2011-04-10T09:09:50Z</time>
      </trkpt>
      <trkpt lat="43.50108" lon="6.82509">
        <ele>527.42</ele>
        <time>2011-04-10T09:10:04Z</time>
      </trkpt>
      <trkpt lat="43.50108" lon="6.82529">
        <ele>525.02</ele>
        <time>2011-04-10T09:10:18Z</time>
      </trkpt>
      <trkpt lat="43.5011" lon="6.82547">
        <ele>522.13</ele>
        <time>2011-04-10T09:10:31Z</time>
      </trkpt>
      <trkpt lat="43.50113" lon="6.82561">
        <ele>520.69</ele>
        <time>2011-04-10T09:10:43Z</time>
      </trkpt>
      <trkpt lat="43.50114" lon="6.82563">
        <ele>519.73</ele>
        <time>2011-04-10T09:10:45Z</time>
      </trkpt>
      <trkpt lat="43.50116" lon="6.82579">
        <ele>517.81</ele>
        <time>2011-04-10T09:10:58Z</time>
      </trkpt>
      <trkpt lat="43.50118" lon="6.8259">
        <ele>516.37</ele>
        <time>2011-04-10T09:11:12Z</time>
      </trkpt>
      <trkpt lat="43.50121" lon="6.82602">
        <ele>514.44</ele>
        <time>2011-04-10T09:11:20Z</time>
      </trkpt>
      <trkpt lat="43.50123" lon="6.82608">
        <ele>514.44</ele>
        <time>2011-04-10T09:11:25Z</time>
      </trkpt>
      <trkpt lat="43.50126" lon="6.82615">
        <ele>513.96</ele>
        <time>2011-04-10T09:11:36Z</time>
      </trkpt>
      <trkpt lat="43.50134" lon="6.82614">
        <ele>512.04</ele>
        <time>2011-04-10T09:11:45Z</time>
      </trkpt>
      <trkpt lat="43.50145" lon="6.82609">
        <ele>509.64</ele>
        <time>2011-04-10T09:11:57Z</time>
      </trkpt>
      <trkpt lat="43.50152" lon="6.82606">
        <ele>508.19</ele>
        <time>2011-04-10T09:12:08Z</time>
      </trkpt>
      <trkpt lat="43.50155" lon="6.82605">
        <ele>507.23</ele>
        <time>2011-04-10T09:12:10Z</time>
      </trkpt>
      <trkpt lat="43.5017" lon="6.826">
        <ele>504.83</ele>
        <time>2011-04-10T09:12:24Z</time>
      </trkpt>
      <trkpt lat="43.50182" lon="6.82598">
        <ele>502.43</ele>
        <time>2011-04-10T09:12:39Z</time>
      </trkpt>
      <trkpt lat="43.50188" lon="6.82594">
        <ele>502.43</ele>
        <time>2011-04-10T09:12:46Z</time>
      </trkpt>
      <trkpt lat="43.502" lon="6.82591">
        <ele>499.06</ele>
        <time>2011-04-10T09:13:02Z</time>
      </trkpt>
      <trkpt lat="43.50208" lon="6.82594">
        <ele>497.62</ele>
        <time>2011-04-10T09:13:13Z</time>
      </trkpt>
      <trkpt lat="43.50221" lon="6.82598">
        <ele>495.7</ele>
        <time>2011-04-10T09:13:24Z</time>
      </trkpt>
      <trkpt lat="43.50239" lon="6.82601">
        <ele>491.85</ele>
        <time>2011-04-10T09:13:41Z</time>
      </trkpt>
      <trkpt lat="43.50251" lon="6.82603">
        <ele>489.93</ele>
        <time>2011-04-10T09:13:54Z</time>
      </trkpt>
      <trkpt lat="43.50258" lon="6.82605">
        <ele>488.97</ele>
        <time>2011-04-10T09:14:02Z</time>
      </trkpt>
      <trkpt lat="43.5027" lon="6.82613">
        <ele>486.08</ele>
        <time>2011-04-10T09:14:17Z</time>
      </trkpt>
      <trkpt lat="43.50275" lon="6.82617">
        <ele>485.12</ele>
        <time>2011-04-10T09:14:23Z</time>
      </trkpt>
      <trkpt lat="43.50282" lon="6.82621">
        <ele>483.2</ele>
        <time>2011-04-10T09:14:31Z</time>
      </trkpt>
      <trkpt lat="43.50286" lon="6.82623">
        <ele>482.72</ele>
        <time>2011-04-10T09:14:35Z</time>
      </trkpt>
      <trkpt lat="43.50297" lon="6.82633">
        <ele>479.84</ele>
        <time>2011-04-10T09:14:50Z</time>
      </trkpt>
      <trkpt lat="43.5031" lon="6.82645">
        <ele>477.91</ele>
        <time>2011-04-10T09:15:06Z</time>
      </trkpt>
      <trkpt lat="43.50313" lon="6.82647">
        <ele>476.95</ele>
        <time>2011-04-10T09:15:09Z</time>
      </trkpt>
      <trkpt lat="43.50318" lon="6.82651">
        <ele>475.51</ele>
        <time>2011-04-10T09:15:16Z</time>
      </trkpt>
      <trkpt lat="43.50321" lon="6.82656">
        <ele>475.03</ele>
        <time>2011-04-10T09:15:21Z</time>
      </trkpt>
      <trkpt lat="43.50326" lon="6.82662">
        <ele>474.07</ele>
        <time>2011-04-10T09:15:27Z</time>
      </trkpt>
      <trkpt lat="43.50328" lon="6.82666">
        <ele>473.11</ele>
        <time>2011-04-10T09:15:31Z</time>
      </trkpt>
      <trkpt lat="43.50339" lon="6.82677">
        <ele>470.7</ele>
        <time>2011-04-10T09:15:45Z</time>
      </trkpt>
      <trkpt lat="43.50341" lon="6.82684">
        <ele>469.74</ele>
        <time>2011-04-10T09:15:51Z</time>
      </trkpt>
      <trkpt lat="43.50343" lon="6.82691">
        <ele>468.78</ele>
        <time>2011-04-10T09:15:55Z</time>
      </trkpt>
      <trkpt lat="43.50353" lon="6.82707">
        <ele>466.38</ele>
        <time>2011-04-10T09:16:09Z</time>
      </trkpt>
      <trkpt lat="43.50357" lon="6.82715">
        <ele>465.42</ele>
        <time>2011-04-10T09:16:20Z</time>
      </trkpt>
      <trkpt lat="43.50362" lon="6.82728">
        <ele>463.49</ele>
        <time>2011-04-10T09:16:32Z</time>
      </trkpt>
      <trkpt lat="43.50364" lon="6.82732">
        <ele>463.01</ele>
        <time>2011-04-10T09:16:35Z</time>
      </trkpt>
      <trkpt lat="43.50371" lon="6.82751">
        <ele>460.61</ele>
        <time>2011-04-10T09:16:51Z</time>
      </trkpt>
      <trkpt lat="43.5037" lon="6.82767">
        <ele>459.17</ele>
        <time>2011-04-10T09:17:04Z</time>
      </trkpt>
      <trkpt lat="43.50361" lon="6.82786">
        <ele>457.72</ele>
        <time>2011-04-10T09:17:20Z</time>
      </trkpt>
      <trkpt lat="43.50348" lon="6.82804">
        <ele>455.32</ele>
        <time>2011-04-10T09:17:37Z</time>
      </trkpt>
      <trkpt lat="43.50341" lon="6.82815">
        <ele>454.36</ele>
        <time>2011-04-10T09:17:50Z</time>
      </trkpt>
      <trkpt lat="43.50336" lon="6.82822">
        <ele>452.92</ele>
        <time>2011-04-10T09:18:01Z</time>
      </trkpt>
      <trkpt lat="43.50327" lon="6.82838">
        <ele>452.44</ele>
        <time>2011-04-10T09:18:15Z</time>
      </trkpt>
      <trkpt lat="43.50327" lon="6.8284">
        <ele>451.96</ele>
        <time>2011-04-10T09:18:16Z</time>
      </trkpt>
      <trkpt lat="43.50324" lon="6.82851">
        <ele>450.52</ele>
        <time>2011-04-10T09:18:27Z</time>
      </trkpt>
      <trkpt lat="43.50322" lon="6.8286">
        <ele>450.03</ele>
        <time>2011-04-10T09:18:33Z</time>
      </trkpt>
      <trkpt lat="43.50321" lon="6.82863">
        <ele>450.03</ele>
        <time>2011-04-10T09:18:35Z</time>
      </trkpt>
      <trkpt lat="43.5032" lon="6.82882">
        <ele>449.07</ele>
        <time>2011-04-10T09:18:51Z</time>
      </trkpt>
      <trkpt lat="43.50319" lon="6.82903">
        <ele>446.67</ele>
        <time>2011-04-10T09:19:07Z</time>
      </trkpt>
      <trkpt lat="43.50322" lon="6.82923">
        <ele>444.75</ele>
        <time>2011-04-10T09:19:22Z</time>
      </trkpt>
      <trkpt lat="43.50325" lon="6.82948">
        <ele>443.31</ele>
        <time>2011-04-10T09:19:39Z</time>
      </trkpt>
      <trkpt lat="43.50325" lon="6.82952">
        <ele>443.79</ele>
        <time>2011-04-10T09:19:42Z</time>
      </trkpt>
      <trkpt lat="43.50325" lon="6.82964">
        <ele>442.82</ele>
        <time>2011-04-10T09:19:50Z</time>
      </trkpt>
      <trkpt lat="43.50324" lon="6.82971">
        <ele>442.34</ele>
        <time>2011-04-10T09:19:55Z</time>
      </trkpt>
      <trkpt lat="43.50327" lon="6.82979">
        <ele>442.34</ele>
        <time>2011-04-10T09:20:01Z</time>
      </trkpt>
      <trkpt lat="43.50327" lon="6.82987">
        <ele>441.38</ele>
        <time>2011-04-10T09:20:07Z</time>
      </trkpt>
      <trkpt lat="43.50327" lon="6.82993">
        <ele>441.38</ele>
        <time>2011-04-10T09:20:11Z</time>
      </trkpt>
      <trkpt lat="43.50327" lon="6.83014">
        <ele>439.94</ele>
        <time>2011-04-10T09:20:26Z</time>
      </trkpt>
      <trkpt lat="43.50324" lon="6.83034">
        <ele>438.02</ele>
        <time>2011-04-10T09:20:41Z</time>
      </trkpt>
      <trkpt lat="43.50323" lon="6.83041">
        <ele>438.02</ele>
        <time>2011-04-10T09:20:52Z</time>
      </trkpt>
      <trkpt lat="43.50325" lon="6.83055">
        <ele>437.06</ele>
        <time>2011-04-10T09:21:02Z</time>
      </trkpt>
      <trkpt lat="43.50329" lon="6.83079">
        <ele>435.61</ele>
        <time>2011-04-10T09:21:18Z</time>
      </trkpt>
      <trkpt lat="43.50329" lon="6.8308">
        <ele>435.61</ele>
        <time>2011-04-10T09:21:19Z</time>
      </trkpt>
      <trkpt lat="43.50331" lon="6.83105">
        <ele>433.69</ele>
        <time>2011-04-10T09:21:35Z</time>
      </trkpt>
      <trkpt lat="43.50331" lon="6.8311">
        <ele>433.69</ele>
        <time>2011-04-10T09:21:39Z</time>
      </trkpt>
      <trkpt lat="43.50331" lon="6.83118">
        <ele>433.69</ele>
        <time>2011-04-10T09:21:44Z</time>
      </trkpt>
      <trkpt lat="43.5033" lon="6.83129">
        <ele>432.25</ele>
        <time>2011-04-10T09:21:57Z</time>
      </trkpt>
      <trkpt lat="43.5033" lon="6.83134">
        <ele>432.25</ele>
        <time>2011-04-10T09:22:08Z</time>
      </trkpt>
      <trkpt lat="43.50335" lon="6.83147">
        <ele>430.33</ele>
        <time>2011-04-10T09:22:21Z</time>
      </trkpt>
      <trkpt lat="43.5034" lon="6.83166">
        <ele>428.4</ele>
        <time>2011-04-10T09:22:35Z</time>
      </trkpt>
      <trkpt lat="43.50346" lon="6.83184">
        <ele>426.96</ele>
        <time>2011-04-10T09:22:49Z</time>
      </trkpt>
      <trkpt lat="43.50351" lon="6.83194">
        <ele>426</ele>
        <time>2011-04-10T09:22:58Z</time>
      </trkpt>
      <trkpt lat="43.50363" lon="6.83209">
        <ele>423.6</ele>
        <time>2011-04-10T09:23:14Z</time>
      </trkpt>
      <trkpt lat="43.50372" lon="6.83214">
        <ele>423.12</ele>
        <time>2011-04-10T09:23:24Z</time>
      </trkpt>
      <trkpt lat="43.50384" lon="6.83219">
        <ele>421.68</ele>
        <time>2011-04-10T09:23:36Z</time>
      </trkpt>
      <trkpt lat="43.50398" lon="6.83223">
        <ele>420.23</ele>
        <time>2011-04-10T09:23:50Z</time>
      </trkpt>
      <trkpt lat="43.50411" lon="6.83227">
        <ele>418.31</ele>
        <time>2011-04-10T09:24:04Z</time>
      </trkpt>
      <trkpt lat="43.50422" lon="6.83228">
        <ele>416.87</ele>
        <time>2011-04-10T09:24:14Z</time>
      </trkpt>
      <trkpt lat="43.50438" lon="6.8323">
        <ele>415.43</ele>
        <time>2011-04-10T09:24:28Z</time>
      </trkpt>
      <trkpt lat="43.50457" lon="6.83238">
        <ele>413.5</ele>
        <time>2011-04-10T09:24:45Z</time>
      </trkpt>
      <trkpt lat="43.50471" lon="6.83243">
        <ele>412.54</ele>
        <time>2011-04-10T09:25:00Z</time>
      </trkpt>
      <trkpt lat="43.50484" lon="6.83251">
        <ele>411.1</ele>
        <time>2011-04-10T09:25:14Z</time>
      </trkpt>
      <trkpt lat="43.50488" lon="6.83253">
        <ele>410.14</ele>
        <time>2011-04-10T09:25:18Z</time>
      </trkpt>
      <trkpt lat="43.50502" lon="6.83261">
        <ele>408.7</ele>
        <time>2011-04-10T09:25:32Z</time>
      </trkpt>
      <trkpt lat="43.50517" lon="6.83269">
        <ele>406.77</ele>
        <time>2011-04-10T09:25:48Z</time>
      </trkpt>
      <trkpt lat="43.50528" lon="6.83278">
        <ele>405.33</ele>
        <time>2011-04-10T09:26:02Z</time>
      </trkpt>
      <trkpt lat="43.50535" lon="6.83283">
        <ele>405.33</ele>
        <time>2011-04-10T09:26:08Z</time>
      </trkpt>
      <trkpt lat="43.50544" lon="6.83285">
        <ele>405.33</ele>
        <time>2011-04-10T09:26:24Z</time>
      </trkpt>
      <trkpt lat="43.50547" lon="6.83284">
        <ele>405.33</ele>
        <time>2011-04-10T09:26:37Z</time>
      </trkpt>
      <trkpt lat="43.50546" lon="6.83285">
        <ele>405.81</ele>
        <time>2011-04-10T09:26:48Z</time>
      </trkpt>
      <trkpt lat="43.50547" lon="6.83289">
        <ele>404.37</ele>
        <time>2011-04-10T09:27:02Z</time>
      </trkpt>
      <trkpt lat="43.50544" lon="6.83294">
        <ele>402.45</ele>
        <time>2011-04-10T09:27:13Z</time>
      </trkpt>
      <trkpt lat="43.50542" lon="6.83303">
        <ele>399.57</ele>
        <time>2011-04-10T09:27:26Z</time>
      </trkpt>
      <trkpt lat="43.50541" lon="6.83308">
        <ele>399.08</ele>
        <time>2011-04-10T09:27:39Z</time>
      </trkpt>
      <trkpt lat="43.50542" lon="6.8331">
        <ele>399.08</ele>
        <time>2011-04-10T09:27:44Z</time>
      </trkpt>
      <trkpt lat="43.50558" lon="6.83321">
        <ele>398.12</ele>
        <time>2011-04-10T09:28:01Z</time>
      </trkpt>
      <trkpt lat="43.50575" lon="6.83332">
        <ele>397.16</ele>
        <time>2011-04-10T09:28:17Z</time>
      </trkpt>
      <trkpt lat="43.50591" lon="6.83341">
        <ele>396.68</ele>
        <time>2011-04-10T09:28:32Z</time>
      </trkpt>
      <trkpt lat="43.50595" lon="6.83345">
        <ele>396.2</ele>
        <time>2011-04-10T09:28:36Z</time>
      </trkpt>
      <trkpt lat="43.50599" lon="6.83348">
        <ele>395.72</ele>
        <time>2011-04-10T09:28:41Z</time>
      </trkpt>
      <trkpt lat="43.50613" lon="6.83359">
        <ele>395.24</ele>
        <time>2011-04-10T09:28:55Z</time>
      </trkpt>
      <trkpt lat="43.50615" lon="6.83367">
        <ele>394.28</ele>
        <time>2011-04-10T09:29:09Z</time>
      </trkpt>
      <trkpt lat="43.50615" lon="6.83367">
        <ele>394.28</ele>
        <time>2011-04-10T09:29:42Z</time>
      </trkpt>
      <trkpt lat="43.50615" lon="6.83367">
        <ele>394.76</ele>
        <time>2011-04-10T09:30:08Z</time>
      </trkpt>
      <trkpt lat="43.50615" lon="6.83367">
        <ele>395.72</ele>
        <time>2011-04-10T09:30:25Z</time>
      </trkpt>
      <trkpt lat="43.50615" lon="6.83367">
        <ele>395.24</ele>
        <time>2011-04-10T09:30:55Z</time>
      </trkpt>
      <trkpt lat="43.50615" lon="6.83364">
        <ele>394.76</ele>
        <time>2011-04-10T09:31:21Z</time>
      </trkpt>
      <trkpt lat="43.50614" lon="6.83362">
        <ele>394.76</ele>
        <time>2011-04-10T09:31:23Z</time>
      </trkpt>
      <trkpt lat="43.50614" lon="6.83357">
        <ele>394.28</ele>
        <time>2011-04-10T09:31:26Z</time>
      </trkpt>
      <trkpt lat="43.50621" lon="6.83337">
        <ele>393.32</ele>
        <time>2011-04-10T09:31:43Z</time>
      </trkpt>
      <trkpt lat="43.50625" lon="6.83328">
        <ele>392.36</ele>
        <time>2011-04-10T09:31:51Z</time>
      </trkpt>
      <trkpt lat="43.50627" lon="6.83317">
        <ele>391.87</ele>
        <time>2011-04-10T09:31:59Z</time>
      </trkpt>
      <trkpt lat="43.50628" lon="6.83303">
        <ele>390.91</ele>
        <time>2011-04-10T09:32:08Z</time>
      </trkpt>
      <trkpt lat="43.5063" lon="6.8328">
        <ele>389.95</ele>
        <time>2011-04-10T09:32:23Z</time>
      </trkpt>
      <trkpt lat="43.50632" lon="6.8327">
        <ele>388.99</ele>
        <time>2011-04-10T09:32:30Z</time>
      </trkpt>
      <trkpt lat="43.50632" lon="6.83249">
        <ele>387.55</ele>
        <time>2011-04-10T09:32:45Z</time>
      </trkpt>
      <trkpt lat="43.50632" lon="6.83229">
        <ele>386.59</ele>
        <time>2011-04-10T09:33:00Z</time>
      </trkpt>
      <trkpt lat="43.50632" lon="6.83228">
        <ele>386.59</ele>
        <time>2011-04-10T09:33:01Z</time>
      </trkpt>
      <trkpt lat="43.50634" lon="6.83219">
        <ele>386.11</ele>
        <time>2011-04-10T09:33:07Z</time>
      </trkpt>
      <trkpt lat="43.50633" lon="6.83214">
        <ele>385.63</ele>
        <time>2011-04-10T09:33:12Z</time>
      </trkpt>
      <trkpt lat="43.50633" lon="6.83209">
        <ele>385.15</ele>
        <time>2011-04-10T09:33:16Z</time>
      </trkpt>
      <trkpt lat="43.50634" lon="6.83186">
        <ele>384.18</ele>
        <time>2011-04-10T09:33:30Z</time>
      </trkpt>
      <trkpt lat="43.50635" lon="6.83183">
        <ele>383.7</ele>
        <time>2011-04-10T09:33:32Z</time>
      </trkpt>
      <trkpt lat="43.50633" lon="6.83163">
        <ele>382.26</ele>
        <time>2011-04-10T09:33:49Z</time>
      </trkpt>
      <trkpt lat="43.50635" lon="6.83142">
        <ele>381.3</ele>
        <time>2011-04-10T09:34:05Z</time>
      </trkpt>
      <trkpt lat="43.50634" lon="6.83122">
        <ele>380.34</ele>
        <time>2011-04-10T09:34:19Z</time>
      </trkpt>
      <trkpt lat="43.50633" lon="6.83106">
        <ele>378.9</ele>
        <time>2011-04-10T09:34:28Z</time>
      </trkpt>
      <trkpt lat="43.50635" lon="6.83092">
        <ele>378.42</ele>
        <time>2011-04-10T09:34:36Z</time>
      </trkpt>
      <trkpt lat="43.50634" lon="6.83081">
        <ele>377.94</ele>
        <time>2011-04-10T09:34:42Z</time>
      </trkpt>
      <trkpt lat="43.50636" lon="6.83066">
        <ele>377.45</ele>
        <time>2011-04-10T09:34:49Z</time>
      </trkpt>
      <trkpt lat="43.50636" lon="6.83045">
        <ele>376.49</ele>
        <time>2011-04-10T09:35:03Z</time>
      </trkpt>
      <trkpt lat="43.50639" lon="6.83037">
        <ele>375.53</ele>
        <time>2011-04-10T09:35:17Z</time>
      </trkpt>
      <trkpt lat="43.50641" lon="6.83025">
        <ele>375.53</ele>
        <time>2011-04-10T09:35:32Z</time>
      </trkpt>
      <trkpt lat="43.50635" lon="6.83003">
        <ele>374.09</ele>
        <time>2011-04-10T09:35:45Z</time>
      </trkpt>
      <trkpt lat="43.50631" lon="6.82999">
        <ele>373.13</ele>
        <time>2011-04-10T09:35:49Z</time>
      </trkpt>
      <trkpt lat="43.5062" lon="6.82975">
        <ele>371.21</ele>
        <time>2011-04-10T09:36:06Z</time>
      </trkpt>
      <trkpt lat="43.50613" lon="6.82958">
        <ele>369.76</ele>
        <time>2011-04-10T09:36:20Z</time>
      </trkpt>
      <trkpt lat="43.50605" lon="6.82944">
        <ele>369.28</ele>
        <time>2011-04-10T09:36:31Z</time>
      </trkpt>
      <trkpt lat="43.50598" lon="6.82935">
        <ele>368.32</ele>
        <time>2011-04-10T09:36:40Z</time>
      </trkpt>
      <trkpt lat="43.50597" lon="6.82933">
        <ele>367.84</ele>
        <time>2011-04-10T09:36:42Z</time>
      </trkpt>
      <trkpt lat="43.50592" lon="6.8292">
        <ele>367.36</ele>
        <time>2011-04-10T09:36:50Z</time>
      </trkpt>
      <trkpt lat="43.50598" lon="6.82889">
        <ele>366.4</ele>
        <time>2011-04-10T09:37:06Z</time>
      </trkpt>
      <trkpt lat="43.506" lon="6.82881">
        <ele>364.96</ele>
        <time>2011-04-10T09:37:10Z</time>
      </trkpt>
      <trkpt lat="43.50606" lon="6.82862">
        <ele>363.52</ele>
        <time>2011-04-10T09:37:24Z</time>
      </trkpt>
      <trkpt lat="43.50616" lon="6.82842">
        <ele>362.55</ele>
        <time>2011-04-10T09:37:39Z</time>
      </trkpt>
      <trkpt lat="43.50624" lon="6.82819">
        <ele>360.63</ele>
        <time>2011-04-10T09:37:55Z</time>
      </trkpt>
      <trkpt lat="43.50631" lon="6.82801">
        <ele>359.19</ele>
        <time>2011-04-10T09:38:09Z</time>
      </trkpt>
      <trkpt lat="43.50639" lon="6.82779">
        <ele>358.23</ele>
        <time>2011-04-10T09:38:24Z</time>
      </trkpt>
      <trkpt lat="43.50639" lon="6.82756">
        <ele>356.79</ele>
        <time>2011-04-10T09:38:39Z</time>
      </trkpt>
      <trkpt lat="43.50642" lon="6.82735">
        <ele>355.34</ele>
        <time>2011-04-10T09:38:52Z</time>
      </trkpt>
      <trkpt lat="43.50645" lon="6.82714">
        <ele>353.9</ele>
        <time>2011-04-10T09:39:06Z</time>
      </trkpt>
      <trkpt lat="43.50648" lon="6.82703">
        <ele>352.94</ele>
        <time>2011-04-10T09:39:14Z</time>
      </trkpt>
      <trkpt lat="43.50651" lon="6.82675">
        <ele>351.98</ele>
        <time>2011-04-10T09:39:31Z</time>
      </trkpt>
      <trkpt lat="43.50655" lon="6.8266">
        <ele>351.02</ele>
        <time>2011-04-10T09:39:44Z</time>
      </trkpt>
      <trkpt lat="43.50655" lon="6.8264">
        <ele>349.58</ele>
        <time>2011-04-10T09:39:57Z</time>
      </trkpt>
      <trkpt lat="43.50655" lon="6.82628">
        <ele>349.58</ele>
        <time>2011-04-10T09:40:06Z</time>
      </trkpt>
      <trkpt lat="43.50652" lon="6.82608">
        <ele>347.65</ele>
        <time>2011-04-10T09:40:20Z</time>
      </trkpt>
      <trkpt lat="43.50651" lon="6.82601">
        <ele>347.17</ele>
        <time>2011-04-10T09:40:26Z</time>
      </trkpt>
      <trkpt lat="43.50647" lon="6.82586">
        <ele>346.21</ele>
        <time>2011-04-10T09:40:37Z</time>
      </trkpt>
      <trkpt lat="43.50645" lon="6.82583">
        <ele>346.21</ele>
        <time>2011-04-10T09:40:40Z</time>
      </trkpt>
      <trkpt lat="43.50645" lon="6.82577">
        <ele>345.73</ele>
        <time>2011-04-10T09:40:43Z</time>
      </trkpt>
      <trkpt lat="43.50639" lon="6.82556">
        <ele>345.25</ele>
        <time>2011-04-10T09:40:58Z</time>
      </trkpt>
      <trkpt lat="43.50636" lon="6.82546">
        <ele>344.29</ele>
        <time>2011-04-10T09:41:06Z</time>
      </trkpt>
      <trkpt lat="43.50631" lon="6.82532">
        <ele>343.33</ele>
        <time>2011-04-10T09:41:16Z</time>
      </trkpt>
      <trkpt lat="43.5063" lon="6.82525">
        <ele>342.37</ele>
        <time>2011-04-10T09:41:21Z</time>
      </trkpt>
      <trkpt lat="43.50626" lon="6.82515">
        <ele>342.37</ele>
        <time>2011-04-10T09:41:30Z</time>
      </trkpt>
      <trkpt lat="43.50626" lon="6.82513">
        <ele>342.37</ele>
        <time>2011-04-10T09:41:32Z</time>
      </trkpt>
      <trkpt lat="43.50622" lon="6.82507">
        <ele>341.89</ele>
        <time>2011-04-10T09:41:38Z</time>
      </trkpt>
      <trkpt lat="43.50621" lon="6.82502">
        <ele>341.41</ele>
        <time>2011-04-10T09:41:42Z</time>
      </trkpt>
      <trkpt lat="43.50609" lon="6.82485">
        <ele>340.44</ele>
        <time>2011-04-10T09:41:57Z</time>
      </trkpt>
      <trkpt lat="43.50608" lon="6.82484">
        <ele>339.96</ele>
        <time>2011-04-10T09:41:58Z</time>
      </trkpt>
      <trkpt lat="43.50602" lon="6.82479">
        <ele>339</ele>
        <time>2011-04-10T09:42:05Z</time>
      </trkpt>
      <trkpt lat="43.50596" lon="6.8247">
        <ele>339</ele>
        <time>2011-04-10T09:42:12Z</time>
      </trkpt>
      <trkpt lat="43.50596" lon="6.82463">
        <ele>339</ele>
        <time>2011-04-10T09:42:15Z</time>
      </trkpt>
      <trkpt lat="43.50598" lon="6.82455">
        <ele>338.52</ele>
        <time>2011-04-10T09:42:21Z</time>
      </trkpt>
      <trkpt lat="43.50603" lon="6.82448">
        <ele>339</ele>
        <time>2011-04-10T09:42:29Z</time>
      </trkpt>
      <trkpt lat="43.50619" lon="6.82436">
        <ele>337.56</ele>
        <time>2011-04-10T09:42:43Z</time>
      </trkpt>
      <trkpt lat="43.50631" lon="6.8243">
        <ele>336.6</ele>
        <time>2011-04-10T09:42:54Z</time>
      </trkpt>
      <trkpt lat="43.50639" lon="6.82408">
        <ele>333.23</ele>
        <time>2011-04-10T09:43:10Z</time>
      </trkpt>
      <trkpt lat="43.50643" lon="6.82404">
        <ele>333.23</ele>
        <time>2011-04-10T09:43:14Z</time>
      </trkpt>
      <trkpt lat="43.50647" lon="6.82394">
        <ele>332.27</ele>
        <time>2011-04-10T09:43:22Z</time>
      </trkpt>
      <trkpt lat="43.50649" lon="6.82387">
        <ele>331.79</ele>
        <time>2011-04-10T09:43:27Z</time>
      </trkpt>
      <trkpt lat="43.5065" lon="6.82383">
        <ele>331.31</ele>
        <time>2011-04-10T09:43:30Z</time>
      </trkpt>
      <trkpt lat="43.50651" lon="6.82375">
        <ele>330.83</ele>
        <time>2011-04-10T09:43:36Z</time>
      </trkpt>
      <trkpt lat="43.50653" lon="6.8237">
        <ele>330.35</ele>
        <time>2011-04-10T09:43:40Z</time>
      </trkpt>
      <trkpt lat="43.50657" lon="6.82351">
        <ele>328.91</ele>
        <time>2011-04-10T09:43:54Z</time>
      </trkpt>
      <trkpt lat="43.50658" lon="6.82339">
        <ele>327.95</ele>
        <time>2011-04-10T09:44:02Z</time>
      </trkpt>
      <trkpt lat="43.50665" lon="6.8232">
        <ele>326.5</ele>
        <time>2011-04-10T09:44:16Z</time>
      </trkpt>
      <trkpt lat="43.50673" lon="6.82305">
        <ele>325.54</ele>
        <time>2011-04-10T09:44:31Z</time>
      </trkpt>
      <trkpt lat="43.50684" lon="6.82276">
        <ele>323.62</ele>
        <time>2011-04-10T09:44:48Z</time>
      </trkpt>
      <trkpt lat="43.50689" lon="6.82255">
        <ele>322.18</ele>
        <time>2011-04-10T09:45:02Z</time>
      </trkpt>
      <trkpt lat="43.50689" lon="6.8224">
        <ele>321.7</ele>
        <time>2011-04-10T09:45:13Z</time>
      </trkpt>
      <trkpt lat="43.50693" lon="6.82224">
        <ele>320.74</ele>
        <time>2011-04-10T09:45:24Z</time>
      </trkpt>
      <trkpt lat="43.50695" lon="6.8221">
        <ele>320.26</ele>
        <time>2011-04-10T09:45:33Z</time>
      </trkpt>
      <trkpt lat="43.50696" lon="6.82205">
        <ele>319.78</ele>
        <time>2011-04-10T09:45:36Z</time>
      </trkpt>
      <trkpt lat="43.50704" lon="6.82202">
        <ele>319.78</ele>
        <time>2011-04-10T09:45:42Z</time>
      </trkpt>
      <trkpt lat="43.50711" lon="6.82199">
        <ele>319.3</ele>
        <time>2011-04-10T09:45:53Z</time>
      </trkpt>
      <trkpt lat="43.50713" lon="6.822">
        <ele>319.78</ele>
        <time>2011-04-10T09:45:55Z</time>
      </trkpt>
      <trkpt lat="43.5072" lon="6.822">
        <ele>318.81</ele>
        <time>2011-04-10T09:46:02Z</time>
      </trkpt>
      <trkpt lat="43.50728" lon="6.82208">
        <ele>319.3</ele>
        <time>2011-04-10T09:46:12Z</time>
      </trkpt>
      <trkpt lat="43.50735" lon="6.82223">
        <ele>319.3</ele>
        <time>2011-04-10T09:46:27Z</time>
      </trkpt>
      <trkpt lat="43.50745" lon="6.8224">
        <ele>321.22</ele>
        <time>2011-04-10T09:46:44Z</time>
      </trkpt>
      <trkpt lat="43.50747" lon="6.82246">
        <ele>321.7</ele>
        <time>2011-04-10T09:46:48Z</time>
      </trkpt>
      <trkpt lat="43.50749" lon="6.82252">
        <ele>322.66</ele>
        <time>2011-04-10T09:46:54Z</time>
      </trkpt>
      <trkpt lat="43.5075" lon="6.82254">
        <ele>322.66</ele>
        <time>2011-04-10T09:46:56Z</time>
      </trkpt>
      <trkpt lat="43.50755" lon="6.8226">
        <ele>323.14</ele>
        <time>2011-04-10T09:47:01Z</time>
      </trkpt>
      <trkpt lat="43.50757" lon="6.82275">
        <ele>323.14</ele>
        <time>2011-04-10T09:47:10Z</time>
      </trkpt>
      <trkpt lat="43.50768" lon="6.82297">
        <ele>323.62</ele>
        <time>2011-04-10T09:47:27Z</time>
      </trkpt>
      <trkpt lat="43.50769" lon="6.823">
        <ele>323.62</ele>
        <time>2011-04-10T09:47:29Z</time>
      </trkpt>
      <trkpt lat="43.50778" lon="6.82316">
        <ele>324.1</ele>
        <time>2011-04-10T09:47:43Z</time>
      </trkpt>
      <trkpt lat="43.50782" lon="6.82333">
        <ele>325.54</ele>
        <time>2011-04-10T09:47:57Z</time>
      </trkpt>
      <trkpt lat="43.50782" lon="6.82334">
        <ele>325.54</ele>
        <time>2011-04-10T09:47:58Z</time>
      </trkpt>
      <trkpt lat="43.50783" lon="6.82337">
        <ele>326.02</ele>
        <time>2011-04-10T09:48:00Z</time>
      </trkpt>
      <trkpt lat="43.50795" lon="6.82353">
        <ele>327.95</ele>
        <time>2011-04-10T09:48:16Z</time>
      </trkpt>
      <trkpt lat="43.50796" lon="6.82356">
        <ele>327.95</ele>
        <time>2011-04-10T09:48:19Z</time>
      </trkpt>
      <trkpt lat="43.50808" lon="6.82369">
        <ele>330.83</ele>
        <time>2011-04-10T09:48:35Z</time>
      </trkpt>
      <trkpt lat="43.5081" lon="6.82371">
        <ele>330.83</ele>
        <time>2011-04-10T09:48:38Z</time>
      </trkpt>
      <trkpt lat="43.50821" lon="6.82385">
        <ele>332.27</ele>
        <time>2011-04-10T09:48:53Z</time>
      </trkpt>
      <trkpt lat="43.50831" lon="6.82398">
        <ele>333.71</ele>
        <time>2011-04-10T09:49:09Z</time>
      </trkpt>
      <trkpt lat="43.50841" lon="6.82411">
        <ele>335.16</ele>
        <time>2011-04-10T09:49:23Z</time>
      </trkpt>
      <trkpt lat="43.50842" lon="6.82413">
        <ele>334.68</ele>
        <time>2011-04-10T09:49:25Z</time>
      </trkpt>
      <trkpt lat="43.50849" lon="6.82423">
        <ele>335.64</ele>
        <time>2011-04-10T09:49:35Z</time>
      </trkpt>
      <trkpt lat="43.50854" lon="6.82428">
        <ele>336.12</ele>
        <time>2011-04-10T09:49:40Z</time>
      </trkpt>
      <trkpt lat="43.50858" lon="6.82433">
        <ele>336.12</ele>
        <time>2011-04-10T09:49:46Z</time>
      </trkpt>
      <trkpt lat="43.50871" lon="6.82447">
        <ele>337.08</ele>
        <time>2011-04-10T09:50:00Z</time>
      </trkpt>
      <trkpt lat="43.50874" lon="6.82452">
        <ele>337.56</ele>
        <time>2011-04-10T09:50:04Z</time>
      </trkpt>
      <trkpt lat="43.50884" lon="6.82463">
        <ele>339</ele>
        <time>2011-04-10T09:50:15Z</time>
      </trkpt>
      <trkpt lat="43.50896" lon="6.82482">
        <ele>340.44</ele>
        <time>2011-04-10T09:50:32Z</time>
      </trkpt>
      <trkpt lat="43.50909" lon="6.82499">
        <ele>342.37</ele>
        <time>2011-04-10T09:50:49Z</time>
      </trkpt>
      <trkpt lat="43.50922" lon="6.82517">
        <ele>343.81</ele>
        <time>2011-04-10T09:51:05Z</time>
      </trkpt>
      <trkpt lat="43.50934" lon="6.8253">
        <ele>344.77</ele>
        <time>2011-04-10T09:51:19Z</time>
      </trkpt>
      <trkpt lat="43.50948" lon="6.82544">
        <ele>346.69</ele>
        <time>2011-04-10T09:51:35Z</time>
      </trkpt>
      <trkpt lat="43.50962" lon="6.82553">
        <ele>346.69</ele>
        <time>2011-04-10T09:51:50Z</time>
      </trkpt>
      <trkpt lat="43.50976" lon="6.82561">
        <ele>347.17</ele>
        <time>2011-04-10T09:52:04Z</time>
      </trkpt>
      <trkpt lat="43.50993" lon="6.82573">
        <ele>347.65</ele>
        <time>2011-04-10T09:52:21Z</time>
      </trkpt>
      <trkpt lat="43.51009" lon="6.82581">
        <ele>349.58</ele>
        <time>2011-04-10T09:52:36Z</time>
      </trkpt>
      <trkpt lat="43.51025" lon="6.82592">
        <ele>350.06</ele>
        <time>2011-04-10T09:52:51Z</time>
      </trkpt>
      <trkpt lat="43.51029" lon="6.82593">
        <ele>350.06</ele>
        <time>2011-04-10T09:52:54Z</time>
      </trkpt>
      <trkpt lat="43.51037" lon="6.82596">
        <ele>351.02</ele>
        <time>2011-04-10T09:53:01Z</time>
      </trkpt>
      <trkpt lat="43.51051" lon="6.82608">
        <ele>351.98</ele>
        <time>2011-04-10T09:53:17Z</time>
      </trkpt>
      <trkpt lat="43.51065" lon="6.82615">
        <ele>353.42</ele>
        <time>2011-04-10T09:53:32Z</time>
      </trkpt>
      <trkpt lat="43.5108" lon="6.82613">
        <ele>355.34</ele>
        <time>2011-04-10T09:53:46Z</time>
      </trkpt>
      <trkpt lat="43.51083" lon="6.82611">
        <ele>355.83</ele>
        <time>2011-04-10T09:53:51Z</time>
      </trkpt>
      <trkpt lat="43.51092" lon="6.826">
        <ele>356.79</ele>
        <time>2011-04-10T09:54:03Z</time>
      </trkpt>
      <trkpt lat="43.51094" lon="6.82597">
        <ele>357.27</ele>
        <time>2011-04-10T09:54:07Z</time>
      </trkpt>
      <trkpt lat="43.51101" lon="6.82589">
        <ele>358.71</ele>
        <time>2011-04-10T09:54:16Z</time>
      </trkpt>
      <trkpt lat="43.51112" lon="6.82568">
        <ele>360.15</ele>
        <time>2011-04-10T09:54:34Z</time>
      </trkpt>
      <trkpt lat="43.5112" lon="6.82548">
        <ele>362.07</ele>
        <time>2011-04-10T09:54:49Z</time>
      </trkpt>
      <trkpt lat="43.51126" lon="6.82531">
        <ele>363.04</ele>
        <time>2011-04-10T09:55:03Z</time>
      </trkpt>
      <trkpt lat="43.51137" lon="6.82519">
        <ele>364.96</ele>
        <time>2011-04-10T09:55:17Z</time>
      </trkpt>
      <trkpt lat="43.51149" lon="6.82506">
        <ele>365.92</ele>
        <time>2011-04-10T09:55:29Z</time>
      </trkpt>
      <trkpt lat="43.51164" lon="6.82491">
        <ele>367.84</ele>
        <time>2011-04-10T09:55:46Z</time>
      </trkpt>
      <trkpt lat="43.51171" lon="6.82487">
        <ele>368.8</ele>
        <time>2011-04-10T09:56:02Z</time>
      </trkpt>
      <trkpt lat="43.51172" lon="6.82486">
        <ele>367.84</ele>
        <time>2011-04-10T09:56:19Z</time>
      </trkpt>
      <trkpt lat="43.51172" lon="6.82487">
        <ele>368.8</ele>
        <time>2011-04-10T09:56:50Z</time>
      </trkpt>
      <trkpt lat="43.51175" lon="6.82485">
        <ele>369.28</ele>
        <time>2011-04-10T09:57:12Z</time>
      </trkpt>
      <trkpt lat="43.51176" lon="6.82484">
        <ele>370.24</ele>
        <time>2011-04-10T09:57:13Z</time>
      </trkpt>
      <trkpt lat="43.51185" lon="6.82472">
        <ele>371.21</ele>
        <time>2011-04-10T09:57:26Z</time>
      </trkpt>
      <trkpt lat="43.51187" lon="6.8247">
        <ele>371.21</ele>
        <time>2011-04-10T09:57:28Z</time>
      </trkpt>
      <trkpt lat="43.51193" lon="6.82458">
        <ele>372.65</ele>
        <time>2011-04-10T09:57:39Z</time>
      </trkpt>
      <trkpt lat="43.51201" lon="6.82443">
        <ele>374.09</ele>
        <time>2011-04-10T09:57:55Z</time>
      </trkpt>
      <trkpt lat="43.5121" lon="6.8243">
        <ele>375.05</ele>
        <time>2011-04-10T09:58:09Z</time>
      </trkpt>
      <trkpt lat="43.51219" lon="6.82414">
        <ele>376.49</ele>
        <time>2011-04-10T09:58:24Z</time>
      </trkpt>
      <trkpt lat="43.51231" lon="6.82401">
        <ele>377.94</ele>
        <time>2011-04-10T09:58:39Z</time>
      </trkpt>
      <trkpt lat="43.51233" lon="6.82399">
        <ele>378.42</ele>
        <time>2011-04-10T09:58:42Z</time>
      </trkpt>
      <trkpt lat="43.51254" lon="6.82391">
        <ele>380.82</ele>
        <time>2011-04-10T09:59:00Z</time>
      </trkpt>
      <trkpt lat="43.5126" lon="6.82381">
        <ele>382.74</ele>
        <time>2011-04-10T09:59:11Z</time>
      </trkpt>
      <trkpt lat="43.51265" lon="6.82363">
        <ele>384.18</ele>
        <time>2011-04-10T09:59:27Z</time>
      </trkpt>
      <trkpt lat="43.51265" lon="6.82361">
        <ele>384.66</ele>
        <time>2011-04-10T09:59:30Z</time>
      </trkpt>
      <trkpt lat="43.51268" lon="6.82355">
        <ele>385.15</ele>
        <time>2011-04-10T09:59:34Z</time>
      </trkpt>
      <trkpt lat="43.51278" lon="6.82334">
        <ele>387.07</ele>
        <time>2011-04-10T09:59:50Z</time>
      </trkpt>
      <trkpt lat="43.51286" lon="6.82317">
        <ele>388.99</ele>
        <time>2011-04-10T10:00:06Z</time>
      </trkpt>
      <trkpt lat="43.51289" lon="6.82313">
        <ele>389.95</ele>
        <time>2011-04-10T10:00:09Z</time>
      </trkpt>
      <trkpt lat="43.51295" lon="6.82296">
        <ele>390.91</ele>
        <time>2011-04-10T10:00:20Z</time>
      </trkpt>
      <trkpt lat="43.51297" lon="6.82286">
        <ele>391.87</ele>
        <time>2011-04-10T10:00:28Z</time>
      </trkpt>
      <trkpt lat="43.513" lon="6.82266">
        <ele>393.32</ele>
        <time>2011-04-10T10:00:42Z</time>
      </trkpt>
      <trkpt lat="43.51299" lon="6.8225">
        <ele>395.24</ele>
        <time>2011-04-10T10:00:56Z</time>
      </trkpt>
      <trkpt lat="43.51298" lon="6.82241">
        <ele>396.2</ele>
        <time>2011-04-10T10:01:03Z</time>
      </trkpt>
      <trkpt lat="43.51297" lon="6.82236">
        <ele>396.68</ele>
        <time>2011-04-10T10:01:07Z</time>
      </trkpt>
      <trkpt lat="43.51297" lon="6.82218">
        <ele>398.12</ele>
        <time>2011-04-10T10:01:18Z</time>
      </trkpt>
      <trkpt lat="43.51295" lon="6.82205">
        <ele>398.6</ele>
        <time>2011-04-10T10:01:27Z</time>
      </trkpt>
      <trkpt lat="43.51289" lon="6.82184">
        <ele>400.53</ele>
        <time>2011-04-10T10:01:39Z</time>
      </trkpt>
      <trkpt lat="43.51287" lon="6.82171">
        <ele>402.45</ele>
        <time>2011-04-10T10:01:50Z</time>
      </trkpt>
      <trkpt lat="43.51286" lon="6.82156">
        <ele>404.37</ele>
        <time>2011-04-10T10:02:05Z</time>
      </trkpt>
      <trkpt lat="43.51285" lon="6.82154">
        <ele>403.89</ele>
        <time>2011-04-10T10:02:08Z</time>
      </trkpt>
      <trkpt lat="43.51283" lon="6.82127">
        <ele>405.33</ele>
        <time>2011-04-10T10:02:24Z</time>
      </trkpt>
      <trkpt lat="43.5128" lon="6.821">
        <ele>407.26</ele>
        <time>2011-04-10T10:02:39Z</time>
      </trkpt>
      <trkpt lat="43.51279" lon="6.8209">
        <ele>407.74</ele>
        <time>2011-04-10T10:02:46Z</time>
      </trkpt>
      <trkpt lat="43.51279" lon="6.82087">
        <ele>407.74</ele>
        <time>2011-04-10T10:02:48Z</time>
      </trkpt>
      <trkpt lat="43.51279" lon="6.82068">
        <ele>408.22</ele>
        <time>2011-04-10T10:03:02Z</time>
      </trkpt>
      <trkpt lat="43.51281" lon="6.82057">
        <ele>409.18</ele>
        <time>2011-04-10T10:03:10Z</time>
      </trkpt>
      <trkpt lat="43.51282" lon="6.82045">
        <ele>409.18</ele>
        <time>2011-04-10T10:03:18Z</time>
      </trkpt>
      <trkpt lat="43.51282" lon="6.82027">
        <ele>410.14</ele>
        <time>2011-04-10T10:03:28Z</time>
      </trkpt>
      <trkpt lat="43.51282" lon="6.82021">
        <ele>410.14</ele>
        <time>2011-04-10T10:03:32Z</time>
      </trkpt>
      <trkpt lat="43.5128" lon="6.82018">
        <ele>410.14</ele>
        <time>2011-04-10T10:03:35Z</time>
      </trkpt>
      <trkpt lat="43.51282" lon="6.81996">
        <ele>411.1</ele>
        <time>2011-04-10T10:03:49Z</time>
      </trkpt>
      <trkpt lat="43.51279" lon="6.81974">
        <ele>411.58</ele>
        <time>2011-04-10T10:04:04Z</time>
      </trkpt>
      <trkpt lat="43.51269" lon="6.81953">
        <ele>413.02</ele>
        <time>2011-04-10T10:04:20Z</time>
      </trkpt>
      <trkpt lat="43.51259" lon="6.81933">
        <ele>413.98</ele>
        <time>2011-04-10T10:04:35Z</time>
      </trkpt>
      <trkpt lat="43.51256" lon="6.81928">
        <ele>413.98</ele>
        <time>2011-04-10T10:04:39Z</time>
      </trkpt>
      <trkpt lat="43.51248" lon="6.81904">
        <ele>414.95</ele>
        <time>2011-04-10T10:04:55Z</time>
      </trkpt>
      <trkpt lat="43.51247" lon="6.81899">
        <ele>415.43</ele>
        <time>2011-04-10T10:04:59Z</time>
      </trkpt>
      <trkpt lat="43.51246" lon="6.81896">
        <ele>415.43</ele>
        <time>2011-04-10T10:05:01Z</time>
      </trkpt>
      <trkpt lat="43.51237" lon="6.81879">
        <ele>416.39</ele>
        <time>2011-04-10T10:05:14Z</time>
      </trkpt>
      <trkpt lat="43.51235" lon="6.81872">
        <ele>416.39</ele>
        <time>2011-04-10T10:05:20Z</time>
      </trkpt>
      <trkpt lat="43.51234" lon="6.81859">
        <ele>417.35</ele>
        <time>2011-04-10T10:05:27Z</time>
      </trkpt>
      <trkpt lat="43.51226" lon="6.81844">
        <ele>417.83</ele>
        <time>2011-04-10T10:05:41Z</time>
      </trkpt>
      <trkpt lat="43.51218" lon="6.8183">
        <ele>418.79</ele>
        <time>2011-04-10T10:05:54Z</time>
      </trkpt>
      <trkpt lat="43.51217" lon="6.81826">
        <ele>418.79</ele>
        <time>2011-04-10T10:05:57Z</time>
      </trkpt>
      <trkpt lat="43.51214" lon="6.81822">
        <ele>418.79</ele>
        <time>2011-04-10T10:06:04Z</time>
      </trkpt>
      <trkpt lat="43.51211" lon="6.81819">
        <ele>419.27</ele>
        <time>2011-04-10T10:06:07Z</time>
      </trkpt>
      <trkpt lat="43.51197" lon="6.81801">
        <ele>420.23</ele>
        <time>2011-04-10T10:06:22Z</time>
      </trkpt>
      <trkpt lat="43.51187" lon="6.81781">
        <ele>420.71</ele>
        <time>2011-04-10T10:06:36Z</time>
      </trkpt>
      <trkpt lat="43.51175" lon="6.81766">
        <ele>422.16</ele>
        <time>2011-04-10T10:06:51Z</time>
      </trkpt>
      <trkpt lat="43.51164" lon="6.81752">
        <ele>422.64</ele>
        <time>2011-04-10T10:07:07Z</time>
      </trkpt>
      <trkpt lat="43.51156" lon="6.81741">
        <ele>423.6</ele>
        <time>2011-04-10T10:07:20Z</time>
      </trkpt>
      <trkpt lat="43.51139" lon="6.81721">
        <ele>422.64</ele>
        <time>2011-04-10T10:07:37Z</time>
      </trkpt>
      <trkpt lat="43.5113" lon="6.81717">
        <ele>422.16</ele>
        <time>2011-04-10T10:07:43Z</time>
      </trkpt>
      <trkpt lat="43.51126" lon="6.81715">
        <ele>422.16</ele>
        <time>2011-04-10T10:07:46Z</time>
      </trkpt>
      <trkpt lat="43.51118" lon="6.81707">
        <ele>422.16</ele>
        <time>2011-04-10T10:07:55Z</time>
      </trkpt>
      <trkpt lat="43.51111" lon="6.81692">
        <ele>421.68</ele>
        <time>2011-04-10T10:08:10Z</time>
      </trkpt>
      <trkpt lat="43.51103" lon="6.81673">
        <ele>420.71</ele>
        <time>2011-04-10T10:08:25Z</time>
      </trkpt>
      <trkpt lat="43.51102" lon="6.81665">
        <ele>420.23</ele>
        <time>2011-04-10T10:08:34Z</time>
      </trkpt>
      <trkpt lat="43.51099" lon="6.81657">
        <ele>420.71</ele>
        <time>2011-04-10T10:08:40Z</time>
      </trkpt>
      <trkpt lat="43.51101" lon="6.81653">
        <ele>420.23</ele>
        <time>2011-04-10T10:08:43Z</time>
      </trkpt>
      <trkpt lat="43.51091" lon="6.81629">
        <ele>419.75</ele>
        <time>2011-04-10T10:08:57Z</time>
      </trkpt>
      <trkpt lat="43.51091" lon="6.81617">
        <ele>419.27</ele>
        <time>2011-04-10T10:09:07Z</time>
      </trkpt>
      <trkpt lat="43.51091" lon="6.81608">
        <ele>419.27</ele>
        <time>2011-04-10T10:09:14Z</time>
      </trkpt>
      <trkpt lat="43.51089" lon="6.81603">
        <ele>419.27</ele>
        <time>2011-04-10T10:09:17Z</time>
      </trkpt>
      <trkpt lat="43.51078" lon="6.81585">
        <ele>417.83</ele>
        <time>2011-04-10T10:09:30Z</time>
      </trkpt>
      <trkpt lat="43.51077" lon="6.81583">
        <ele>417.35</ele>
        <time>2011-04-10T10:09:31Z</time>
      </trkpt>
      <trkpt lat="43.51075" lon="6.81575">
        <ele>417.35</ele>
        <time>2011-04-10T10:09:35Z</time>
      </trkpt>
      <trkpt lat="43.51064" lon="6.81555">
        <ele>417.35</ele>
        <time>2011-04-10T10:09:50Z</time>
      </trkpt>
      <trkpt lat="43.51059" lon="6.8155">
        <ele>417.83</ele>
        <time>2011-04-10T10:10:02Z</time>
      </trkpt>
      <trkpt lat="43.51055" lon="6.81546">
        <ele>419.75</ele>
        <time>2011-04-10T10:10:17Z</time>
      </trkpt>
      <trkpt lat="43.51051" lon="6.81544">
        <ele>421.68</ele>
        <time>2011-04-10T10:10:29Z</time>
      </trkpt>
      <trkpt lat="43.51049" lon="6.81544">
        <ele>422.64</ele>
        <time>2011-04-10T10:10:43Z</time>
      </trkpt>
      <trkpt lat="43.51049" lon="6.81544">
        <ele>422.64</ele>
        <time>2011-04-10T10:10:58Z</time>
      </trkpt>
      <trkpt lat="43.51049" lon="6.81544">
        <ele>422.64</ele>
        <time>2011-04-10T10:11:21Z</time>
      </trkpt>
      <trkpt lat="43.51049" lon="6.81543">
        <ele>422.64</ele>
        <time>2011-04-10T10:11:42Z</time>
      </trkpt>
      <trkpt lat="43.51049" lon="6.81543">
        <ele>422.16</ele>
        <time>2011-04-10T10:12:00Z</time>
      </trkpt>
      <trkpt lat="43.51049" lon="6.81542">
        <ele>422.16</ele>
        <time>2011-04-10T10:12:24Z</time>
      </trkpt>
      <trkpt lat="43.51049" lon="6.81542">
        <ele>422.16</ele>
        <time>2011-04-10T10:12:54Z</time>
      </trkpt>
      <trkpt lat="43.51049" lon="6.81542">
        <ele>422.64</ele>
        <time>2011-04-10T10:13:13Z</time>
      </trkpt>
      <trkpt lat="43.51049" lon="6.81541">
        <ele>422.16</ele>
        <time>2011-04-10T10:13:43Z</time>
      </trkpt>
      <trkpt lat="43.51049" lon="6.81541">
        <ele>422.16</ele>
        <time>2011-04-10T10:14:12Z</time>
      </trkpt>
      <trkpt lat="43.51049" lon="6.81541">
        <ele>422.64</ele>
        <time>2011-04-10T10:14:44Z</time>
      </trkpt>
      <trkpt lat="43.51049" lon="6.81541">
        <ele>422.64</ele>
        <time>2011-04-10T10:15:14Z</time>
      </trkpt>
      <trkpt lat="43.51049" lon="6.81541">
        <ele>422.64</ele>
        <time>2011-04-10T10:15:54Z</time>
      </trkpt>
      <trkpt lat="43.51048" lon="6.81541">
        <ele>423.6</ele>
        <time>2011-04-10T10:16:25Z</time>
      </trkpt>
      <trkpt lat="43.51048" lon="6.81541">
        <ele>423.12</ele>
        <time>2011-04-10T10:16:59Z</time>
      </trkpt>
      <trkpt lat="43.51048" lon="6.81542">
        <ele>423.12</ele>
        <time>2011-04-10T10:17:33Z</time>
      </trkpt>
      <trkpt lat="43.51048" lon="6.81542">
        <ele>423.12</ele>
        <time>2011-04-10T10:18:06Z</time>
      </trkpt>
      <trkpt lat="43.51048" lon="6.81542">
        <ele>423.12</ele>
        <time>2011-04-10T10:18:45Z</time>
      </trkpt>
      <trkpt lat="43.51048" lon="6.81542">
        <ele>423.6</ele>
        <time>2011-04-10T10:19:22Z</time>
      </trkpt>
      <trkpt lat="43.51048" lon="6.81542">
        <ele>423.6</ele>
        <time>2011-04-10T10:20:00Z</time>
      </trkpt>
      <trkpt lat="43.51048" lon="6.81542">
        <ele>424.08</ele>
        <time>2011-04-10T10:20:42Z</time>
      </trkpt>
      <trkpt lat="43.51048" lon="6.81542">
        <ele>424.08</ele>
        <time>2011-04-10T10:21:19Z</time>
      </trkpt>
      <trkpt lat="43.51047" lon="6.81543">
        <ele>424.08</ele>
        <time>2011-04-10T10:21:51Z</time>
      </trkpt>
      <trkpt lat="43.51047" lon="6.81543">
        <ele>424.56</ele>
        <time>2011-04-10T10:22:30Z</time>
      </trkpt>
      <trkpt lat="43.51047" lon="6.81543">
        <ele>424.56</ele>
        <time>2011-04-10T10:23:09Z</time>
      </trkpt>
      <trkpt lat="43.51047" lon="6.81543">
        <ele>424.56</ele>
        <time>2011-04-10T10:23:46Z</time>
      </trkpt>
      <trkpt lat="43.51047" lon="6.81543">
        <ele>424.08</ele>
        <time>2011-04-10T10:24:08Z</time>
      </trkpt>
      <trkpt lat="43.51047" lon="6.81543">
        <ele>427.44</ele>
        <time>2011-04-10T10:24:19Z</time>
      </trkpt>
      <trkpt lat="43.51047" lon="6.81543">
        <ele>424.08</ele>
        <time>2011-04-10T10:24:29Z</time>
      </trkpt>
      <trkpt lat="43.51047" lon="6.81543">
        <ele>425.04</ele>
        <time>2011-04-10T10:24:57Z</time>
      </trkpt>
      <trkpt lat="43.51046" lon="6.81541">
        <ele>425.04</ele>
        <time>2011-04-10T10:25:27Z</time>
      </trkpt>
      <trkpt lat="43.51046" lon="6.81541">
        <ele>425.52</ele>
        <time>2011-04-10T10:25:52Z</time>
      </trkpt>
      <trkpt lat="43.5103" lon="6.81552">
        <ele>424.08</ele>
        <time>2011-04-10T10:32:16Z</time>
      </trkpt>
      <trkpt lat="43.51029" lon="6.81553">
        <ele>424.56</ele>
        <time>2011-04-10T10:32:17Z</time>
      </trkpt>
      <trkpt lat="43.51032" lon="6.8155">
        <ele>423.6</ele>
        <time>2011-04-10T10:32:23Z</time>
      </trkpt>
      <trkpt lat="43.51031" lon="6.81548">
        <ele>420.23</ele>
        <time>2011-04-10T10:32:31Z</time>
      </trkpt>
      <trkpt lat="43.51033" lon="6.81546">
        <ele>419.75</ele>
        <time>2011-04-10T10:32:35Z</time>
      </trkpt>
      <trkpt lat="43.51034" lon="6.81545">
        <ele>416.87</ele>
        <time>2011-04-10T10:32:42Z</time>
      </trkpt>
      <trkpt lat="43.5104" lon="6.81545">
        <ele>416.87</ele>
        <time>2011-04-10T10:33:08Z</time>
      </trkpt>
      <trkpt lat="43.51043" lon="6.81541">
        <ele>416.87</ele>
        <time>2011-04-10T10:33:41Z</time>
      </trkpt>
      <trkpt lat="43.51042" lon="6.81542">
        <ele>416.87</ele>
        <time>2011-04-10T10:34:15Z</time>
      </trkpt>
      <trkpt lat="43.51042" lon="6.81542">
        <ele>416.87</ele>
        <time>2011-04-10T10:34:47Z</time>
      </trkpt>
      <trkpt lat="43.51042" lon="6.81542">
        <ele>416.87</ele>
        <time>2011-04-10T10:35:17Z</time>
      </trkpt>
      <trkpt lat="43.51042" lon="6.81542">
        <ele>416.87</ele>
        <time>2011-04-10T10:35:52Z</time>
      </trkpt>
      <trkpt lat="43.51041" lon="6.81541">
        <ele>416.87</ele>
        <time>2011-04-10T10:36:30Z</time>
      </trkpt>
      <trkpt lat="43.51042" lon="6.81542">
        <ele>413.02</ele>
        <time>2011-04-10T10:36:54Z</time>
      </trkpt>
      <trkpt lat="43.51042" lon="6.81542">
        <ele>421.68</ele>
        <time>2011-04-10T10:36:55Z</time>
      </trkpt>
      <trkpt lat="43.51042" lon="6.81542">
        <ele>417.83</ele>
        <time>2011-04-10T10:36:56Z</time>
      </trkpt>
      <trkpt lat="43.51042" lon="6.81542">
        <ele>416.87</ele>
        <time>2011-04-10T10:37:25Z</time>
      </trkpt>
      <trkpt lat="43.51042" lon="6.81542">
        <ele>417.35</ele>
        <time>2011-04-10T10:37:58Z</time>
      </trkpt>
      <trkpt lat="43.51042" lon="6.81542">
        <ele>416.87</ele>
        <time>2011-04-10T10:38:15Z</time>
      </trkpt>
      <trkpt lat="43.51041" lon="6.81543">
        <ele>416.39</ele>
        <time>2011-04-10T10:38:55Z</time>
      </trkpt>
      <trkpt lat="43.51041" lon="6.81543">
        <ele>416.39</ele>
        <time>2011-04-10T10:39:30Z</time>
      </trkpt>
      <trkpt lat="43.51041" lon="6.81543">
        <ele>416.87</ele>
        <time>2011-04-10T10:40:04Z</time>
      </trkpt>
      <trkpt lat="43.51041" lon="6.81543">
        <ele>416.87</ele>
        <time>2011-04-10T10:40:32Z</time>
      </trkpt>
      <trkpt lat="43.51041" lon="6.81543">
        <ele>417.35</ele>
        <time>2011-04-10T10:41:05Z</time>
      </trkpt>
      <trkpt lat="43.51041" lon="6.81543">
        <ele>417.35</ele>
        <time>2011-04-10T10:41:38Z</time>
      </trkpt>
      <trkpt lat="43.51041" lon="6.81543">
        <ele>416.87</ele>
        <time>2011-04-10T10:42:10Z</time>
      </trkpt>
      <trkpt lat="43.51041" lon="6.81543">
        <ele>416.39</ele>
        <time>2011-04-10T10:42:44Z</time>
      </trkpt>
      <trkpt lat="43.51041" lon="6.81543">
        <ele>416.39</ele>
        <time>2011-04-10T10:43:16Z</time>
      </trkpt>
      <trkpt lat="43.51041" lon="6.81544">
        <ele>416.87</ele>
        <time>2011-04-10T10:43:49Z</time>
      </trkpt>
      <trkpt lat="43.51041" lon="6.81544">
        <ele>416.39</ele>
        <time>2011-04-10T10:44:19Z</time>
      </trkpt>
      <trkpt lat="43.51041" lon="6.81544">
        <ele>416.39</ele>
        <time>2011-04-10T10:44:43Z</time>
      </trkpt>
      <trkpt lat="43.51041" lon="6.81544">
        <ele>416.39</ele>
        <time>2011-04-10T10:45:15Z</time>
      </trkpt>
      <trkpt lat="43.51041" lon="6.81544">
        <ele>416.39</ele>
        <time>2011-04-10T10:45:52Z</time>
      </trkpt>
      <trkpt lat="43.5104" lon="6.81544">
        <ele>415.91</ele>
        <time>2011-04-10T10:46:31Z</time>
      </trkpt>
      <trkpt lat="43.5104" lon="6.81544">
        <ele>415.91</ele>
        <time>2011-04-10T10:47:08Z</time>
      </trkpt>
      <trkpt lat="43.51039" lon="6.81544">
        <ele>415.91</ele>
        <time>2011-04-10T10:47:44Z</time>
      </trkpt>
      <trkpt lat="43.51039" lon="6.81544">
        <ele>416.39</ele>
        <time>2011-04-10T10:48:25Z</time>
      </trkpt>
      <trkpt lat="43.51038" lon="6.81545">
        <ele>416.39</ele>
        <time>2011-04-10T10:49:06Z</time>
      </trkpt>
      <trkpt lat="43.51039" lon="6.81545">
        <ele>416.39</ele>
        <time>2011-04-10T10:49:38Z</time>
      </trkpt>
      <trkpt lat="43.51039" lon="6.81545">
        <ele>415.91</ele>
        <time>2011-04-10T10:50:07Z</time>
      </trkpt>
      <trkpt lat="43.51039" lon="6.81545">
        <ele>416.39</ele>
        <time>2011-04-10T10:50:37Z</time>
      </trkpt>
      <trkpt lat="43.51039" lon="6.81545">
        <ele>415.91</ele>
        <time>2011-04-10T10:51:13Z</time>
      </trkpt>
      <trkpt lat="43.51038" lon="6.81545">
        <ele>416.39</ele>
        <time>2011-04-10T10:51:50Z</time>
      </trkpt>
      <trkpt lat="43.51038" lon="6.81546">
        <ele>416.39</ele>
        <time>2011-04-10T10:52:30Z</time>
      </trkpt>
      <trkpt lat="43.51038" lon="6.81546">
        <ele>420.23</ele>
        <time>2011-04-10T10:53:08Z</time>
      </trkpt>
      <trkpt lat="43.51038" lon="6.81546">
        <ele>416.39</ele>
        <time>2011-04-10T10:53:09Z</time>
      </trkpt>
      <trkpt lat="43.51038" lon="6.81546">
        <ele>416.39</ele>
        <time>2011-04-10T10:53:47Z</time>
      </trkpt>
      <trkpt lat="43.51038" lon="6.81546">
        <ele>416.87</ele>
        <time>2011-04-10T10:54:06Z</time>
      </trkpt>
      <trkpt lat="43.51038" lon="6.81546">
        <ele>422.64</ele>
        <time>2011-04-10T10:54:10Z</time>
      </trkpt>
      <trkpt lat="43.51038" lon="6.81546">
        <ele>416.39</ele>
        <time>2011-04-10T10:54:11Z</time>
      </trkpt>
      <trkpt lat="43.51038" lon="6.81546">
        <ele>402.45</ele>
        <time>2011-04-10T10:54:15Z</time>
      </trkpt>
      <trkpt lat="43.51038" lon="6.81546">
        <ele>420.71</ele>
        <time>2011-04-10T10:54:16Z</time>
      </trkpt>
      <trkpt lat="43.51038" lon="6.81546">
        <ele>416.39</ele>
        <time>2011-04-10T10:54:17Z</time>
      </trkpt>
      <trkpt lat="43.51038" lon="6.81546">
        <ele>410.62</ele>
        <time>2011-04-10T10:54:19Z</time>
      </trkpt>
      <trkpt lat="43.51038" lon="6.81546">
        <ele>420.23</ele>
        <time>2011-04-10T10:54:20Z</time>
      </trkpt>
      <trkpt lat="43.51038" lon="6.81546">
        <ele>414.95</ele>
        <time>2011-04-10T10:54:21Z</time>
      </trkpt>
      <trkpt lat="43.51038" lon="6.81546">
        <ele>396.68</ele>
        <time>2011-04-10T10:54:27Z</time>
      </trkpt>
      <trkpt lat="43.51038" lon="6.81546">
        <ele>432.25</ele>
        <time>2011-04-10T10:54:28Z</time>
      </trkpt>
      <trkpt lat="43.51038" lon="6.81546">
        <ele>417.83</ele>
        <time>2011-04-10T10:54:29Z</time>
      </trkpt>
      <trkpt lat="43.51037" lon="6.81545">
        <ele>416.87</ele>
        <time>2011-04-10T10:54:46Z</time>
      </trkpt>
      <trkpt lat="43.51039" lon="6.81542">
        <ele>416.87</ele>
        <time>2011-04-10T10:55:02Z</time>
      </trkpt>
      <trkpt lat="43.51042" lon="6.81542">
        <ele>416.39</ele>
        <time>2011-04-10T10:55:18Z</time>
      </trkpt>
      <trkpt lat="43.51051" lon="6.81544">
        <ele>414.95</ele>
        <time>2011-04-10T10:55:29Z</time>
      </trkpt>
      <trkpt lat="43.51054" lon="6.81545">
        <ele>413.02</ele>
        <time>2011-04-10T10:55:32Z</time>
      </trkpt>
      <trkpt lat="43.51056" lon="6.81546">
        <ele>413.02</ele>
        <time>2011-04-10T10:55:35Z</time>
      </trkpt>
      <trkpt lat="43.51059" lon="6.81544">
        <ele>413.98</ele>
        <time>2011-04-10T10:55:40Z</time>
      </trkpt>
      <trkpt lat="43.51059" lon="6.81537">
        <ele>412.54</ele>
        <time>2011-04-10T10:55:46Z</time>
      </trkpt>
      <trkpt lat="43.51055" lon="6.81526">
        <ele>411.1</ele>
        <time>2011-04-10T10:55:56Z</time>
      </trkpt>
      <trkpt lat="43.51042" lon="6.81522">
        <ele>409.18</ele>
        <time>2011-04-10T10:56:09Z</time>
      </trkpt>
      <trkpt lat="43.51032" lon="6.81513">
        <ele>407.74</ele>
        <time>2011-04-10T10:56:23Z</time>
      </trkpt>
      <trkpt lat="43.51029" lon="6.81512">
        <ele>407.74</ele>
        <time>2011-04-10T10:56:26Z</time>
      </trkpt>
      <trkpt lat="43.51027" lon="6.81511">
        <ele>407.74</ele>
        <time>2011-04-10T10:56:28Z</time>
      </trkpt>
      <trkpt lat="43.51023" lon="6.81508">
        <ele>406.77</ele>
        <time>2011-04-10T10:56:32Z</time>
      </trkpt>
      <trkpt lat="43.51014" lon="6.81491">
        <ele>407.26</ele>
        <time>2011-04-10T10:56:46Z</time>
      </trkpt>
      <trkpt lat="43.51011" lon="6.81485">
        <ele>405.81</ele>
        <time>2011-04-10T10:56:52Z</time>
      </trkpt>
      <trkpt lat="43.51006" lon="6.81475">
        <ele>403.89</ele>
        <time>2011-04-10T10:57:02Z</time>
      </trkpt>
      <trkpt lat="43.50995" lon="6.81463">
        <ele>401.97</ele>
        <time>2011-04-10T10:57:14Z</time>
      </trkpt>
      <trkpt lat="43.50986" lon="6.81458">
        <ele>401.97</ele>
        <time>2011-04-10T10:57:26Z</time>
      </trkpt>
      <trkpt lat="43.50984" lon="6.81456">
        <ele>400.05</ele>
        <time>2011-04-10T10:57:28Z</time>
      </trkpt>
      <trkpt lat="43.50972" lon="6.81436">
        <ele>398.6</ele>
        <time>2011-04-10T10:57:43Z</time>
      </trkpt>
      <trkpt lat="43.50964" lon="6.8142">
        <ele>397.16</ele>
        <time>2011-04-10T10:57:56Z</time>
      </trkpt>
      <trkpt lat="43.50962" lon="6.81411">
        <ele>395.72</ele>
        <time>2011-04-10T10:58:04Z</time>
      </trkpt>
      <trkpt lat="43.50959" lon="6.81404">
        <ele>396.68</ele>
        <time>2011-04-10T10:58:08Z</time>
      </trkpt>
      <trkpt lat="43.50956" lon="6.81397">
        <ele>396.2</ele>
        <time>2011-04-10T10:58:13Z</time>
      </trkpt>
      <trkpt lat="43.50942" lon="6.81382">
        <ele>393.8</ele>
        <time>2011-04-10T10:58:29Z</time>
      </trkpt>
      <trkpt lat="43.50933" lon="6.81373">
        <ele>391.87</ele>
        <time>2011-04-10T10:58:41Z</time>
      </trkpt>
      <trkpt lat="43.50931" lon="6.81371">
        <ele>391.39</ele>
        <time>2011-04-10T10:58:43Z</time>
      </trkpt>
      <trkpt lat="43.50921" lon="6.8136">
        <ele>390.91</ele>
        <time>2011-04-10T10:58:55Z</time>
      </trkpt>
      <trkpt lat="43.50919" lon="6.81356">
        <ele>389.95</ele>
        <time>2011-04-10T10:58:59Z</time>
      </trkpt>
      <trkpt lat="43.50906" lon="6.81344">
        <ele>389.47</ele>
        <time>2011-04-10T10:59:12Z</time>
      </trkpt>
      <trkpt lat="43.50903" lon="6.81342">
        <ele>388.99</ele>
        <time>2011-04-10T10:59:14Z</time>
      </trkpt>
      <trkpt lat="43.50898" lon="6.81336">
        <ele>386.59</ele>
        <time>2011-04-10T10:59:21Z</time>
      </trkpt>
      <trkpt lat="43.50892" lon="6.8133">
        <ele>386.59</ele>
        <time>2011-04-10T10:59:28Z</time>
      </trkpt>
      <trkpt lat="43.50888" lon="6.81323">
        <ele>387.07</ele>
        <time>2011-04-10T10:59:33Z</time>
      </trkpt>
      <trkpt lat="43.50877" lon="6.81312">
        <ele>386.11</ele>
        <time>2011-04-10T10:59:45Z</time>
      </trkpt>
      <trkpt lat="43.50874" lon="6.81309">
        <ele>384.18</ele>
        <time>2011-04-10T10:59:50Z</time>
      </trkpt>
      <trkpt lat="43.50866" lon="6.81302">
        <ele>382.26</ele>
        <time>2011-04-10T10:59:58Z</time>
      </trkpt>
      <trkpt lat="43.50858" lon="6.81289">
        <ele>381.78</ele>
        <time>2011-04-10T11:00:11Z</time>
      </trkpt>
      <trkpt lat="43.50849" lon="6.8127">
        <ele>380.82</ele>
        <time>2011-04-10T11:00:26Z</time>
      </trkpt>
      <trkpt lat="43.50849" lon="6.81269">
        <ele>379.86</ele>
        <time>2011-04-10T11:00:27Z</time>
      </trkpt>
      <trkpt lat="43.50845" lon="6.81261">
        <ele>379.86</ele>
        <time>2011-04-10T11:00:32Z</time>
      </trkpt>
      <trkpt lat="43.50842" lon="6.81255">
        <ele>378.42</ele>
        <time>2011-04-10T11:00:37Z</time>
      </trkpt>
      <trkpt lat="43.50837" lon="6.81248">
        <ele>377.94</ele>
        <time>2011-04-10T11:00:45Z</time>
      </trkpt>
      <trkpt lat="43.50834" lon="6.81244">
        <ele>378.9</ele>
        <time>2011-04-10T11:00:49Z</time>
      </trkpt>
      <trkpt lat="43.50827" lon="6.81242">
        <ele>376.97</ele>
        <time>2011-04-10T11:01:01Z</time>
      </trkpt>
      <trkpt lat="43.50824" lon="6.81238">
        <ele>377.94</ele>
        <time>2011-04-10T11:01:05Z</time>
      </trkpt>
      <trkpt lat="43.50811" lon="6.8123">
        <ele>375.53</ele>
        <time>2011-04-10T11:01:18Z</time>
      </trkpt>
      <trkpt lat="43.50807" lon="6.8123">
        <ele>374.57</ele>
        <time>2011-04-10T11:01:22Z</time>
      </trkpt>
      <trkpt lat="43.50797" lon="6.8123">
        <ele>373.61</ele>
        <time>2011-04-10T11:01:31Z</time>
      </trkpt>
      <trkpt lat="43.50785" lon="6.81234">
        <ele>371.69</ele>
        <time>2011-04-10T11:01:45Z</time>
      </trkpt>
      <trkpt lat="43.50779" lon="6.81234">
        <ele>370.24</ele>
        <time>2011-04-10T11:01:57Z</time>
      </trkpt>
      <trkpt lat="43.50768" lon="6.81233">
        <ele>371.69</ele>
        <time>2011-04-10T11:02:09Z</time>
      </trkpt>
      <trkpt lat="43.50768" lon="6.81233">
        <ele>371.69</ele>
        <time>2011-04-10T11:02:10Z</time>
      </trkpt>
      <trkpt lat="43.50766" lon="6.8123">
        <ele>368.8</ele>
        <time>2011-04-10T11:02:14Z</time>
      </trkpt>
      <trkpt lat="43.50762" lon="6.81234">
        <ele>370.73</ele>
        <time>2011-04-10T11:02:21Z</time>
      </trkpt>
      <trkpt lat="43.50762" lon="6.81234">
        <ele>367.84</ele>
        <time>2011-04-10T11:02:24Z</time>
      </trkpt>
      <trkpt lat="43.50762" lon="6.81234">
        <ele>369.76</ele>
        <time>2011-04-10T11:02:56Z</time>
      </trkpt>
      <trkpt lat="43.50759" lon="6.81233">
        <ele>367.36</ele>
        <time>2011-04-10T11:03:07Z</time>
      </trkpt>
      <trkpt lat="43.50756" lon="6.81228">
        <ele>368.32</ele>
        <time>2011-04-10T11:03:11Z</time>
      </trkpt>
      <trkpt lat="43.50754" lon="6.81221">
        <ele>369.28</ele>
        <time>2011-04-10T11:03:15Z</time>
      </trkpt>
      <trkpt lat="43.50758" lon="6.81203">
        <ele>366.88</ele>
        <time>2011-04-10T11:03:30Z</time>
      </trkpt>
      <trkpt lat="43.50759" lon="6.81203">
        <ele>365.92</ele>
        <time>2011-04-10T11:03:31Z</time>
      </trkpt>
      <trkpt lat="43.50761" lon="6.812">
        <ele>365.92</ele>
        <time>2011-04-10T11:03:33Z</time>
      </trkpt>
      <trkpt lat="43.50763" lon="6.81193">
        <ele>364.48</ele>
        <time>2011-04-10T11:03:38Z</time>
      </trkpt>
      <trkpt lat="43.50758" lon="6.81181">
        <ele>364.48</ele>
        <time>2011-04-10T11:03:50Z</time>
      </trkpt>
      <trkpt lat="43.50745" lon="6.81176">
        <ele>364</ele>
        <time>2011-04-10T11:04:04Z</time>
      </trkpt>
      <trkpt lat="43.50732" lon="6.81175">
        <ele>364.96</ele>
        <time>2011-04-10T11:04:16Z</time>
      </trkpt>
      <trkpt lat="43.5072" lon="6.81172">
        <ele>364.48</ele>
        <time>2011-04-10T11:04:27Z</time>
      </trkpt>
      <trkpt lat="43.50712" lon="6.81167">
        <ele>364.48</ele>
        <time>2011-04-10T11:04:33Z</time>
      </trkpt>
      <trkpt lat="43.50695" lon="6.81166">
        <ele>364</ele>
        <time>2011-04-10T11:04:47Z</time>
      </trkpt>
      <trkpt lat="43.50693" lon="6.81165">
        <ele>365.92</ele>
        <time>2011-04-10T11:04:50Z</time>
      </trkpt>
      <trkpt lat="43.50681" lon="6.81164">
        <ele>364.48</ele>
        <time>2011-04-10T11:04:59Z</time>
      </trkpt>
      <trkpt lat="43.50678" lon="6.81162">
        <ele>365.92</ele>
        <time>2011-04-10T11:05:12Z</time>
      </trkpt>
      <trkpt lat="43.50667" lon="6.81158">
        <ele>366.4</ele>
        <time>2011-04-10T11:05:27Z</time>
      </trkpt>
      <trkpt lat="43.5065" lon="6.8115">
        <ele>366.88</ele>
        <time>2011-04-10T11:05:43Z</time>
      </trkpt>
      <trkpt lat="43.50636" lon="6.81142">
        <ele>367.84</ele>
        <time>2011-04-10T11:05:57Z</time>
      </trkpt>
      <trkpt lat="43.5063" lon="6.81137">
        <ele>367.36</ele>
        <time>2011-04-10T11:06:03Z</time>
      </trkpt>
      <trkpt lat="43.50615" lon="6.8113">
        <ele>368.8</ele>
        <time>2011-04-10T11:06:16Z</time>
      </trkpt>
      <trkpt lat="43.50609" lon="6.81124">
        <ele>369.76</ele>
        <time>2011-04-10T11:06:25Z</time>
      </trkpt>
      <trkpt lat="43.50605" lon="6.81121">
        <ele>369.28</ele>
        <time>2011-04-10T11:06:28Z</time>
      </trkpt>
      <trkpt lat="43.50597" lon="6.81113">
        <ele>369.28</ele>
        <time>2011-04-10T11:06:36Z</time>
      </trkpt>
      <trkpt lat="43.50588" lon="6.81098">
        <ele>369.76</ele>
        <time>2011-04-10T11:06:52Z</time>
      </trkpt>
      <trkpt lat="43.50586" lon="6.81092">
        <ele>369.76</ele>
        <time>2011-04-10T11:06:57Z</time>
      </trkpt>
      <trkpt lat="43.50576" lon="6.81078">
        <ele>371.21</ele>
        <time>2011-04-10T11:07:09Z</time>
      </trkpt>
      <trkpt lat="43.50573" lon="6.81067">
        <ele>372.17</ele>
        <time>2011-04-10T11:07:16Z</time>
      </trkpt>
      <trkpt lat="43.50563" lon="6.81043">
        <ele>371.69</ele>
        <time>2011-04-10T11:07:33Z</time>
      </trkpt>
      <trkpt lat="43.50557" lon="6.81031">
        <ele>370.73</ele>
        <time>2011-04-10T11:07:41Z</time>
      </trkpt>
      <trkpt lat="43.50549" lon="6.81007">
        <ele>371.21</ele>
        <time>2011-04-10T11:07:57Z</time>
      </trkpt>
      <trkpt lat="43.50541" lon="6.8099">
        <ele>371.21</ele>
        <time>2011-04-10T11:08:11Z</time>
      </trkpt>
      <trkpt lat="43.50536" lon="6.80979">
        <ele>371.69</ele>
        <time>2011-04-10T11:08:20Z</time>
      </trkpt>
      <trkpt lat="43.50531" lon="6.8097">
        <ele>371.21</ele>
        <time>2011-04-10T11:08:26Z</time>
      </trkpt>
      <trkpt lat="43.50519" lon="6.80945">
        <ele>373.13</ele>
        <time>2011-04-10T11:08:44Z</time>
      </trkpt>
      <trkpt lat="43.50508" lon="6.80932">
        <ele>372.65</ele>
        <time>2011-04-10T11:08:57Z</time>
      </trkpt>
      <trkpt lat="43.50503" lon="6.80926">
        <ele>372.17</ele>
        <time>2011-04-10T11:09:03Z</time>
      </trkpt>
      <trkpt lat="43.50491" lon="6.80912">
        <ele>374.09</ele>
        <time>2011-04-10T11:09:17Z</time>
      </trkpt>
      <trkpt lat="43.5048" lon="6.80902">
        <ele>374.09</ele>
        <time>2011-04-10T11:09:29Z</time>
      </trkpt>
      <trkpt lat="43.50478" lon="6.80902">
        <ele>373.61</ele>
        <time>2011-04-10T11:09:30Z</time>
      </trkpt>
      <trkpt lat="43.50464" lon="6.8089">
        <ele>375.53</ele>
        <time>2011-04-10T11:09:45Z</time>
      </trkpt>
      <trkpt lat="43.50457" lon="6.80885">
        <ele>374.57</ele>
        <time>2011-04-10T11:09:54Z</time>
      </trkpt>
      <trkpt lat="43.50449" lon="6.8088">
        <ele>375.05</ele>
        <time>2011-04-10T11:10:01Z</time>
      </trkpt>
      <trkpt lat="43.50437" lon="6.80871">
        <ele>376.01</ele>
        <time>2011-04-10T11:10:15Z</time>
      </trkpt>
      <trkpt lat="43.50434" lon="6.80868">
        <ele>376.01</ele>
        <time>2011-04-10T11:10:18Z</time>
      </trkpt>
      <trkpt lat="43.50419" lon="6.80859">
        <ele>376.97</ele>
        <time>2011-04-10T11:10:33Z</time>
      </trkpt>
      <trkpt lat="43.50418" lon="6.80858">
        <ele>376.01</ele>
        <time>2011-04-10T11:10:34Z</time>
      </trkpt>
      <trkpt lat="43.50412" lon="6.80855">
        <ele>376.49</ele>
        <time>2011-04-10T11:10:40Z</time>
      </trkpt>
      <trkpt lat="43.50396" lon="6.80847">
        <ele>377.94</ele>
        <time>2011-04-10T11:10:55Z</time>
      </trkpt>
      <trkpt lat="43.50381" lon="6.80842">
        <ele>378.42</ele>
        <time>2011-04-10T11:11:11Z</time>
      </trkpt>
      <trkpt lat="43.50366" lon="6.80839">
        <ele>378.9</ele>
        <time>2011-04-10T11:11:24Z</time>
      </trkpt>
      <trkpt lat="43.50351" lon="6.80836">
        <ele>379.38</ele>
        <time>2011-04-10T11:11:38Z</time>
      </trkpt>
      <trkpt lat="43.50335" lon="6.80837">
        <ele>378.42</ele>
        <time>2011-04-10T11:11:52Z</time>
      </trkpt>
      <trkpt lat="43.5033" lon="6.80838">
        <ele>379.86</ele>
        <time>2011-04-10T11:11:57Z</time>
      </trkpt>
      <trkpt lat="43.50312" lon="6.80839">
        <ele>378.9</ele>
        <time>2011-04-10T11:12:12Z</time>
      </trkpt>
      <trkpt lat="43.50296" lon="6.8084">
        <ele>379.86</ele>
        <time>2011-04-10T11:12:27Z</time>
      </trkpt>
      <trkpt lat="43.50279" lon="6.80841">
        <ele>380.34</ele>
        <time>2011-04-10T11:12:41Z</time>
      </trkpt>
      <trkpt lat="43.50261" lon="6.80843">
        <ele>380.82</ele>
        <time>2011-04-10T11:12:56Z</time>
      </trkpt>
      <trkpt lat="43.50249" lon="6.80843">
        <ele>380.34</ele>
        <time>2011-04-10T11:13:10Z</time>
      </trkpt>
      <trkpt lat="43.50248" lon="6.80843">
        <ele>380.82</ele>
        <time>2011-04-10T11:13:27Z</time>
      </trkpt>
      <trkpt lat="43.50248" lon="6.80844">
        <ele>380.34</ele>
        <time>2011-04-10T11:14:01Z</time>
      </trkpt>
      <trkpt lat="43.50247" lon="6.80845">
        <ele>381.3</ele>
        <time>2011-04-10T11:14:12Z</time>
      </trkpt>
      <trkpt lat="43.50243" lon="6.80845">
        <ele>380.34</ele>
        <time>2011-04-10T11:14:16Z</time>
      </trkpt>
      <trkpt lat="43.5023" lon="6.80849">
        <ele>380.34</ele>
        <time>2011-04-10T11:14:30Z</time>
      </trkpt>
      <trkpt lat="43.50222" lon="6.80852">
        <ele>378.9</ele>
        <time>2011-04-10T11:14:37Z</time>
      </trkpt>
      <trkpt lat="43.5022" lon="6.80852">
        <ele>379.38</ele>
        <time>2011-04-10T11:14:39Z</time>
      </trkpt>
      <trkpt lat="43.50203" lon="6.80862">
        <ele>378.42</ele>
        <time>2011-04-10T11:14:54Z</time>
      </trkpt>
      <trkpt lat="43.50202" lon="6.80862">
        <ele>378.42</ele>
        <time>2011-04-10T11:14:55Z</time>
      </trkpt>
      <trkpt lat="43.502" lon="6.80862">
        <ele>378.42</ele>
        <time>2011-04-10T11:14:57Z</time>
      </trkpt>
      <trkpt lat="43.50194" lon="6.80864">
        <ele>378.9</ele>
        <time>2011-04-10T11:15:02Z</time>
      </trkpt>
      <trkpt lat="43.50179" lon="6.80871">
        <ele>378.42</ele>
        <time>2011-04-10T11:15:16Z</time>
      </trkpt>
      <trkpt lat="43.50167" lon="6.80876">
        <ele>377.94</ele>
        <time>2011-04-10T11:15:29Z</time>
      </trkpt>
      <trkpt lat="43.50161" lon="6.80875">
        <ele>378.42</ele>
        <time>2011-04-10T11:15:33Z</time>
      </trkpt>
      <trkpt lat="43.50156" lon="6.80878">
        <ele>378.42</ele>
        <time>2011-04-10T11:15:38Z</time>
      </trkpt>
      <trkpt lat="43.50141" lon="6.80885">
        <ele>377.45</ele>
        <time>2011-04-10T11:15:51Z</time>
      </trkpt>
      <trkpt lat="43.50137" lon="6.80886">
        <ele>377.94</ele>
        <time>2011-04-10T11:15:55Z</time>
      </trkpt>
      <trkpt lat="43.50132" lon="6.80885">
        <ele>378.42</ele>
        <time>2011-04-10T11:15:59Z</time>
      </trkpt>
      <trkpt lat="43.50114" lon="6.8089">
        <ele>377.45</ele>
        <time>2011-04-10T11:16:14Z</time>
      </trkpt>
      <trkpt lat="43.50111" lon="6.80891">
        <ele>370.73</ele>
        <time>2011-04-10T11:16:16Z</time>
      </trkpt>
      <trkpt lat="43.5011" lon="6.80891">
        <ele>379.86</ele>
        <time>2011-04-10T11:16:17Z</time>
      </trkpt>
      <trkpt lat="43.50105" lon="6.80891">
        <ele>377.45</ele>
        <time>2011-04-10T11:16:22Z</time>
      </trkpt>
      <trkpt lat="43.5009" lon="6.80898">
        <ele>377.45</ele>
        <time>2011-04-10T11:16:36Z</time>
      </trkpt>
      <trkpt lat="43.50087" lon="6.80899">
        <ele>377.45</ele>
        <time>2011-04-10T11:16:39Z</time>
      </trkpt>
      <trkpt lat="43.50072" lon="6.80905">
        <ele>376.97</ele>
        <time>2011-04-10T11:16:54Z</time>
      </trkpt>
      <trkpt lat="43.50059" lon="6.8091">
        <ele>377.45</ele>
        <time>2011-04-10T11:17:07Z</time>
      </trkpt>
      <trkpt lat="43.50058" lon="6.8091">
        <ele>376.49</ele>
        <time>2011-04-10T11:17:08Z</time>
      </trkpt>
      <trkpt lat="43.50053" lon="6.8091">
        <ele>376.01</ele>
        <time>2011-04-10T11:17:12Z</time>
      </trkpt>
      <trkpt lat="43.50036" lon="6.80915">
        <ele>376.49</ele>
        <time>2011-04-10T11:17:26Z</time>
      </trkpt>
      <trkpt lat="43.50022" lon="6.80913">
        <ele>376.49</ele>
        <time>2011-04-10T11:17:39Z</time>
      </trkpt>
      <trkpt lat="43.5001" lon="6.80909">
        <ele>377.45</ele>
        <time>2011-04-10T11:17:51Z</time>
      </trkpt>
      <trkpt lat="43.49999" lon="6.80905">
        <ele>378.42</ele>
        <time>2011-04-10T11:18:00Z</time>
      </trkpt>
      <trkpt lat="43.49992" lon="6.80902">
        <ele>377.45</ele>
        <time>2011-04-10T11:18:07Z</time>
      </trkpt>
      <trkpt lat="43.49979" lon="6.80894">
        <ele>377.45</ele>
        <time>2011-04-10T11:18:20Z</time>
      </trkpt>
      <trkpt lat="43.49969" lon="6.80883">
        <ele>378.42</ele>
        <time>2011-04-10T11:18:32Z</time>
      </trkpt>
      <trkpt lat="43.49962" lon="6.80877">
        <ele>377.94</ele>
        <time>2011-04-10T11:18:39Z</time>
      </trkpt>
      <trkpt lat="43.49956" lon="6.8087">
        <ele>378.42</ele>
        <time>2011-04-10T11:18:45Z</time>
      </trkpt>
      <trkpt lat="43.49943" lon="6.80858">
        <ele>378.42</ele>
        <time>2011-04-10T11:18:59Z</time>
      </trkpt>
      <trkpt lat="43.49935" lon="6.80851">
        <ele>379.38</ele>
        <time>2011-04-10T11:19:09Z</time>
      </trkpt>
      <trkpt lat="43.49931" lon="6.80848">
        <ele>379.86</ele>
        <time>2011-04-10T11:19:13Z</time>
      </trkpt>
      <trkpt lat="43.49928" lon="6.80845">
        <ele>379.38</ele>
        <time>2011-04-10T11:19:17Z</time>
      </trkpt>
      <trkpt lat="43.49915" lon="6.80832">
        <ele>380.34</ele>
        <time>2011-04-10T11:19:30Z</time>
      </trkpt>
      <trkpt lat="43.49912" lon="6.8083">
        <ele>380.34</ele>
        <time>2011-04-10T11:19:33Z</time>
      </trkpt>
      <trkpt lat="43.499" lon="6.80819">
        <ele>380.82</ele>
        <time>2011-04-10T11:19:46Z</time>
      </trkpt>
      <trkpt lat="43.49899" lon="6.80817">
        <ele>380.82</ele>
        <time>2011-04-10T11:19:48Z</time>
      </trkpt>
      <trkpt lat="43.49884" lon="6.80801">
        <ele>381.3</ele>
        <time>2011-04-10T11:20:04Z</time>
      </trkpt>
      <trkpt lat="43.49884" lon="6.80801">
        <ele>381.78</ele>
        <time>2011-04-10T11:20:05Z</time>
      </trkpt>
      <trkpt lat="43.49875" lon="6.80788">
        <ele>381.78</ele>
        <time>2011-04-10T11:20:18Z</time>
      </trkpt>
      <trkpt lat="43.49868" lon="6.80777">
        <ele>382.26</ele>
        <time>2011-04-10T11:20:28Z</time>
      </trkpt>
      <trkpt lat="43.49857" lon="6.8076">
        <ele>382.74</ele>
        <time>2011-04-10T11:20:43Z</time>
      </trkpt>
      <trkpt lat="43.49848" lon="6.80747">
        <ele>383.7</ele>
        <time>2011-04-10T11:20:55Z</time>
      </trkpt>
      <trkpt lat="43.49836" lon="6.80729">
        <ele>382.74</ele>
        <time>2011-04-10T11:21:11Z</time>
      </trkpt>
      <trkpt lat="43.49826" lon="6.80714">
        <ele>384.66</ele>
        <time>2011-04-10T11:21:24Z</time>
      </trkpt>
      <trkpt lat="43.49816" lon="6.80701">
        <ele>384.18</ele>
        <time>2011-04-10T11:21:37Z</time>
      </trkpt>
      <trkpt lat="43.49806" lon="6.80687">
        <ele>385.63</ele>
        <time>2011-04-10T11:21:51Z</time>
      </trkpt>
      <trkpt lat="43.49802" lon="6.80681">
        <ele>386.11</ele>
        <time>2011-04-10T11:21:56Z</time>
      </trkpt>
      <trkpt lat="43.49795" lon="6.80675">
        <ele>386.11</ele>
        <time>2011-04-10T11:22:05Z</time>
      </trkpt>
      <trkpt lat="43.49792" lon="6.80669">
        <ele>386.59</ele>
        <time>2011-04-10T11:22:10Z</time>
      </trkpt>
      <trkpt lat="43.49783" lon="6.8065">
        <ele>386.59</ele>
        <time>2011-04-10T11:22:26Z</time>
      </trkpt>
      <trkpt lat="43.49779" lon="6.80634">
        <ele>388.51</ele>
        <time>2011-04-10T11:22:39Z</time>
      </trkpt>
      <trkpt lat="43.49777" lon="6.80621">
        <ele>388.03</ele>
        <time>2011-04-10T11:22:48Z</time>
      </trkpt>
      <trkpt lat="43.49769" lon="6.80603">
        <ele>389.47</ele>
        <time>2011-04-10T11:23:02Z</time>
      </trkpt>
      <trkpt lat="43.49763" lon="6.80585">
        <ele>389.95</ele>
        <time>2011-04-10T11:23:15Z</time>
      </trkpt>
      <trkpt lat="43.4976" lon="6.80576">
        <ele>390.43</ele>
        <time>2011-04-10T11:23:21Z</time>
      </trkpt>
      <trkpt lat="43.49755" lon="6.80569">
        <ele>389.95</ele>
        <time>2011-04-10T11:23:27Z</time>
      </trkpt>
      <trkpt lat="43.49749" lon="6.80562">
        <ele>388.99</ele>
        <time>2011-04-10T11:23:34Z</time>
      </trkpt>
      <trkpt lat="43.49742" lon="6.80552">
        <ele>388.03</ele>
        <time>2011-04-10T11:23:45Z</time>
      </trkpt>
      <trkpt lat="43.49738" lon="6.80544">
        <ele>387.55</ele>
        <time>2011-04-10T11:23:58Z</time>
      </trkpt>
      <trkpt lat="43.49738" lon="6.80537">
        <ele>387.07</ele>
        <time>2011-04-10T11:24:09Z</time>
      </trkpt>
      <trkpt lat="43.49736" lon="6.80517">
        <ele>385.63</ele>
        <time>2011-04-10T11:24:25Z</time>
      </trkpt>
      <trkpt lat="43.49731" lon="6.80496">
        <ele>385.63</ele>
        <time>2011-04-10T11:24:39Z</time>
      </trkpt>
      <trkpt lat="43.49728" lon="6.80488">
        <ele>382.26</ele>
        <time>2011-04-10T11:24:45Z</time>
      </trkpt>
      <trkpt lat="43.4972" lon="6.8047">
        <ele>382.26</ele>
        <time>2011-04-10T11:24:59Z</time>
      </trkpt>
      <trkpt lat="43.49712" lon="6.80447">
        <ele>382.74</ele>
        <time>2011-04-10T11:25:15Z</time>
      </trkpt>
      <trkpt lat="43.49699" lon="6.80421">
        <ele>380.34</ele>
        <time>2011-04-10T11:25:33Z</time>
      </trkpt>
      <trkpt lat="43.49685" lon="6.80406">
        <ele>379.86</ele>
        <time>2011-04-10T11:25:47Z</time>
      </trkpt>
      <trkpt lat="43.4967" lon="6.80391">
        <ele>379.38</ele>
        <time>2011-04-10T11:26:03Z</time>
      </trkpt>
      <trkpt lat="43.49667" lon="6.80388">
        <ele>378.9</ele>
        <time>2011-04-10T11:26:06Z</time>
      </trkpt>
      <trkpt lat="43.49655" lon="6.80368">
        <ele>377.45</ele>
        <time>2011-04-10T11:26:21Z</time>
      </trkpt>
      <trkpt lat="43.49652" lon="6.80345">
        <ele>376.01</ele>
        <time>2011-04-10T11:26:36Z</time>
      </trkpt>
      <trkpt lat="43.49654" lon="6.80328">
        <ele>376.01</ele>
        <time>2011-04-10T11:26:47Z</time>
      </trkpt>
      <trkpt lat="43.49651" lon="6.80307">
        <ele>373.61</ele>
        <time>2011-04-10T11:26:59Z</time>
      </trkpt>
      <trkpt lat="43.49637" lon="6.80282">
        <ele>373.13</ele>
        <time>2011-04-10T11:27:17Z</time>
      </trkpt>
      <trkpt lat="43.49636" lon="6.8028">
        <ele>372.65</ele>
        <time>2011-04-10T11:27:18Z</time>
      </trkpt>
      <trkpt lat="43.49622" lon="6.80262">
        <ele>371.21</ele>
        <time>2011-04-10T11:27:34Z</time>
      </trkpt>
      <trkpt lat="43.49608" lon="6.80241">
        <ele>370.73</ele>
        <time>2011-04-10T11:27:51Z</time>
      </trkpt>
      <trkpt lat="43.49597" lon="6.80222">
        <ele>368.8</ele>
        <time>2011-04-10T11:28:07Z</time>
      </trkpt>
      <trkpt lat="43.49591" lon="6.80207">
        <ele>367.84</ele>
        <time>2011-04-10T11:28:19Z</time>
      </trkpt>
      <trkpt lat="43.49583" lon="6.80187">
        <ele>367.36</ele>
        <time>2011-04-10T11:28:33Z</time>
      </trkpt>
      <trkpt lat="43.49579" lon="6.80172">
        <ele>366.88</ele>
        <time>2011-04-10T11:28:48Z</time>
      </trkpt>
      <trkpt lat="43.49564" lon="6.80166">
        <ele>367.36</ele>
        <time>2011-04-10T11:29:02Z</time>
      </trkpt>
      <trkpt lat="43.49555" lon="6.80168">
        <ele>366.4</ele>
        <time>2011-04-10T11:29:18Z</time>
      </trkpt>
      <trkpt lat="43.49549" lon="6.80176">
        <ele>366.88</ele>
        <time>2011-04-10T11:29:33Z</time>
      </trkpt>
      <trkpt lat="43.49548" lon="6.80176">
        <ele>366.88</ele>
        <time>2011-04-10T11:29:54Z</time>
      </trkpt>
      <trkpt lat="43.49545" lon="6.8018">
        <ele>366.4</ele>
        <time>2011-04-10T11:30:06Z</time>
      </trkpt>
      <trkpt lat="43.49545" lon="6.8018">
        <ele>366.88</ele>
        <time>2011-04-10T11:30:18Z</time>
      </trkpt>
      <trkpt lat="43.49545" lon="6.80181">
        <ele>367.36</ele>
        <time>2011-04-10T11:30:34Z</time>
      </trkpt>
      <trkpt lat="43.49545" lon="6.80182">
        <ele>370.24</ele>
        <time>2011-04-10T11:30:36Z</time>
      </trkpt>
      <trkpt lat="43.49545" lon="6.80182">
        <ele>363.04</ele>
        <time>2011-04-10T11:30:37Z</time>
      </trkpt>
      <trkpt lat="43.49545" lon="6.80182">
        <ele>363.04</ele>
        <time>2011-04-10T11:30:38Z</time>
      </trkpt>
      <trkpt lat="43.49545" lon="6.80182">
        <ele>346.69</ele>
        <time>2011-04-10T11:30:40Z</time>
      </trkpt>
      <trkpt lat="43.49545" lon="6.80182">
        <ele>365.92</ele>
        <time>2011-04-10T11:30:41Z</time>
      </trkpt>
      <trkpt lat="43.49545" lon="6.80182">
        <ele>374.57</ele>
        <time>2011-04-10T11:30:42Z</time>
      </trkpt>
      <trkpt lat="43.49545" lon="6.80182">
        <ele>365.92</ele>
        <time>2011-04-10T11:30:43Z</time>
      </trkpt>
      <trkpt lat="43.49545" lon="6.80182">
        <ele>362.55</ele>
        <time>2011-04-10T11:30:48Z</time>
      </trkpt>
      <trkpt lat="43.49545" lon="6.80182">
        <ele>371.69</ele>
        <time>2011-04-10T11:30:50Z</time>
      </trkpt>
      <trkpt lat="43.49545" lon="6.80182">
        <ele>369.28</ele>
        <time>2011-04-10T11:30:51Z</time>
      </trkpt>
      <trkpt lat="43.49545" lon="6.80182">
        <ele>364.48</ele>
        <time>2011-04-10T11:30:52Z</time>
      </trkpt>
      <trkpt lat="43.49545" lon="6.80182">
        <ele>365.92</ele>
        <time>2011-04-10T11:30:53Z</time>
      </trkpt>
      <trkpt lat="43.49545" lon="6.80182">
        <ele>364</ele>
        <time>2011-04-10T11:30:56Z</time>
      </trkpt>
      <trkpt lat="43.49545" lon="6.80182">
        <ele>366.88</ele>
        <time>2011-04-10T11:31:02Z</time>
      </trkpt>
      <trkpt lat="43.49545" lon="6.80182">
        <ele>366.88</ele>
        <time>2011-04-10T11:31:03Z</time>
      </trkpt>
      <trkpt lat="43.49545" lon="6.80182">
        <ele>363.52</ele>
        <time>2011-04-10T11:31:13Z</time>
      </trkpt>
      <trkpt lat="43.49545" lon="6.80182">
        <ele>368.8</ele>
        <time>2011-04-10T11:31:14Z</time>
      </trkpt>
      <trkpt lat="43.49545" lon="6.80182">
        <ele>356.31</ele>
        <time>2011-04-10T11:31:15Z</time>
      </trkpt>
      <trkpt lat="43.49545" lon="6.80182">
        <ele>370.24</ele>
        <time>2011-04-10T11:31:16Z</time>
      </trkpt>
      <trkpt lat="43.49545" lon="6.80182">
        <ele>365.44</ele>
        <time>2011-04-10T11:31:17Z</time>
      </trkpt>
      <trkpt lat="43.49545" lon="6.80182">
        <ele>362.07</ele>
        <time>2011-04-10T11:31:19Z</time>
      </trkpt>
      <trkpt lat="43.49545" lon="6.80182">
        <ele>367.84</ele>
        <time>2011-04-10T11:31:20Z</time>
      </trkpt>
      <trkpt lat="43.49545" lon="6.80182">
        <ele>360.63</ele>
        <time>2011-04-10T11:31:23Z</time>
      </trkpt>
      <trkpt lat="43.49545" lon="6.80182">
        <ele>368.32</ele>
        <time>2011-04-10T11:31:24Z</time>
      </trkpt>
      <trkpt lat="43.49545" lon="6.80182">
        <ele>366.4</ele>
        <time>2011-04-10T11:31:27Z</time>
      </trkpt>
      <trkpt lat="43.49545" lon="6.80182">
        <ele>365.44</ele>
        <time>2011-04-10T11:31:33Z</time>
      </trkpt>
      <trkpt lat="43.49545" lon="6.80182">
        <ele>370.73</ele>
        <time>2011-04-10T11:31:36Z</time>
      </trkpt>
      <trkpt lat="43.49545" lon="6.80182">
        <ele>366.4</ele>
        <time>2011-04-10T11:31:37Z</time>
      </trkpt>
      <trkpt lat="43.49545" lon="6.80182">
        <ele>355.83</ele>
        <time>2011-04-10T11:31:39Z</time>
      </trkpt>
      <trkpt lat="43.49545" lon="6.80182">
        <ele>367.36</ele>
        <time>2011-04-10T11:31:40Z</time>
      </trkpt>
      <trkpt lat="43.49545" lon="6.80182">
        <ele>363.04</ele>
        <time>2011-04-10T11:31:52Z</time>
      </trkpt>
      <trkpt lat="43.49545" lon="6.80182">
        <ele>366.88</ele>
        <time>2011-04-10T11:31:53Z</time>
      </trkpt>
      <trkpt lat="43.49545" lon="6.80183">
        <ele>363.52</ele>
        <time>2011-04-10T11:32:14Z</time>
      </trkpt>
      <trkpt lat="43.49545" lon="6.80183">
        <ele>364.48</ele>
        <time>2011-04-10T11:32:15Z</time>
      </trkpt>
      <trkpt lat="43.49545" lon="6.80183">
        <ele>368.8</ele>
        <time>2011-04-10T11:32:17Z</time>
      </trkpt>
      <trkpt lat="43.49545" lon="6.80183">
        <ele>364.96</ele>
        <time>2011-04-10T11:32:18Z</time>
      </trkpt>
      <trkpt lat="43.49545" lon="6.80182">
        <ele>365.44</ele>
        <time>2011-04-10T11:32:55Z</time>
      </trkpt>
      <trkpt lat="43.49545" lon="6.80182">
        <ele>369.76</ele>
        <time>2011-04-10T11:33:30Z</time>
      </trkpt>
      <trkpt lat="43.49545" lon="6.80182">
        <ele>364.96</ele>
        <time>2011-04-10T11:33:31Z</time>
      </trkpt>
      <trkpt lat="43.49545" lon="6.80182">
        <ele>354.86</ele>
        <time>2011-04-10T11:33:33Z</time>
      </trkpt>
      <trkpt lat="43.49545" lon="6.80182">
        <ele>369.28</ele>
        <time>2011-04-10T11:33:34Z</time>
      </trkpt>
      <trkpt lat="43.49545" lon="6.80182">
        <ele>364.48</ele>
        <time>2011-04-10T11:33:35Z</time>
      </trkpt>
      <trkpt lat="43.49545" lon="6.80182">
        <ele>367.84</ele>
        <time>2011-04-10T11:33:36Z</time>
      </trkpt>
      <trkpt lat="43.49545" lon="6.80182">
        <ele>364.48</ele>
        <time>2011-04-10T11:33:39Z</time>
      </trkpt>
      <trkpt lat="43.49545" lon="6.80182">
        <ele>364.48</ele>
        <time>2011-04-10T11:33:40Z</time>
      </trkpt>
      <trkpt lat="43.49545" lon="6.80182">
        <ele>360.63</ele>
        <time>2011-04-10T11:33:41Z</time>
      </trkpt>
      <trkpt lat="43.49545" lon="6.80182">
        <ele>368.32</ele>
        <time>2011-04-10T11:33:42Z</time>
      </trkpt>
      <trkpt lat="43.49545" lon="6.80182">
        <ele>364.48</ele>
        <time>2011-04-10T11:33:43Z</time>
      </trkpt>
      <trkpt lat="43.49545" lon="6.80182">
        <ele>369.28</ele>
        <time>2011-04-10T11:33:44Z</time>
      </trkpt>
      <trkpt lat="43.49545" lon="6.80182">
        <ele>364.48</ele>
        <time>2011-04-10T11:33:45Z</time>
      </trkpt>
      <trkpt lat="43.49545" lon="6.80182">
        <ele>368.8</ele>
        <time>2011-04-10T11:33:48Z</time>
      </trkpt>
      <trkpt lat="43.49545" lon="6.80182">
        <ele>364.48</ele>
        <time>2011-04-10T11:33:49Z</time>
      </trkpt>
      <trkpt lat="43.49545" lon="6.80182">
        <ele>353.42</ele>
        <time>2011-04-10T11:33:50Z</time>
      </trkpt>
      <trkpt lat="43.49545" lon="6.80182">
        <ele>378.42</ele>
        <time>2011-04-10T11:33:51Z</time>
      </trkpt>
      <trkpt lat="43.49545" lon="6.80182">
        <ele>366.4</ele>
        <time>2011-04-10T11:33:52Z</time>
      </trkpt>
      <trkpt lat="43.49545" lon="6.80182">
        <ele>363.04</ele>
        <time>2011-04-10T11:33:54Z</time>
      </trkpt>
      <trkpt lat="43.49545" lon="6.80182">
        <ele>359.19</ele>
        <time>2011-04-10T11:33:56Z</time>
      </trkpt>
      <trkpt lat="43.49545" lon="6.80182">
        <ele>368.32</ele>
        <time>2011-04-10T11:33:57Z</time>
      </trkpt>
      <trkpt lat="43.49545" lon="6.80182">
        <ele>364.96</ele>
        <time>2011-04-10T11:33:58Z</time>
      </trkpt>
      <trkpt lat="43.49545" lon="6.80182">
        <ele>362.07</ele>
        <time>2011-04-10T11:33:59Z</time>
      </trkpt>
      <trkpt lat="43.49545" lon="6.80182">
        <ele>367.84</ele>
        <time>2011-04-10T11:34:00Z</time>
      </trkpt>
      <trkpt lat="43.49545" lon="6.80182">
        <ele>365.92</ele>
        <time>2011-04-10T11:34:03Z</time>
      </trkpt>
      <trkpt lat="43.49545" lon="6.80182">
        <ele>374.09</ele>
        <time>2011-04-10T11:34:09Z</time>
      </trkpt>
      <trkpt lat="43.49545" lon="6.80182">
        <ele>361.11</ele>
        <time>2011-04-10T11:34:10Z</time>
      </trkpt>
      <trkpt lat="43.49545" lon="6.80182">
        <ele>364.96</ele>
        <time>2011-04-10T11:34:11Z</time>
      </trkpt>
      <trkpt lat="43.49545" lon="6.80182">
        <ele>368.32</ele>
        <time>2011-04-10T11:34:18Z</time>
      </trkpt>
      <trkpt lat="43.49545" lon="6.80182">
        <ele>364.96</ele>
        <time>2011-04-10T11:34:21Z</time>
      </trkpt>
      <trkpt lat="43.49545" lon="6.80182">
        <ele>364.48</ele>
        <time>2011-04-10T11:34:35Z</time>
      </trkpt>
      <trkpt lat="43.49545" lon="6.80182">
        <ele>369.76</ele>
        <time>2011-04-10T11:34:36Z</time>
      </trkpt>
      <trkpt lat="43.49545" lon="6.80182">
        <ele>367.36</ele>
        <time>2011-04-10T11:34:37Z</time>
      </trkpt>
      <trkpt lat="43.49545" lon="6.80181">
        <ele>364.96</ele>
        <time>2011-04-10T11:34:39Z</time>
      </trkpt>
      <trkpt lat="43.49547" lon="6.80177">
        <ele>365.92</ele>
        <time>2011-04-10T11:34:47Z</time>
      </trkpt>
      <trkpt lat="43.49549" lon="6.80175">
        <ele>365.44</ele>
        <time>2011-04-10T11:34:50Z</time>
      </trkpt>
      <trkpt lat="43.49552" lon="6.80173">
        <ele>366.88</ele>
        <time>2011-04-10T11:34:53Z</time>
      </trkpt>
      <trkpt lat="43.49561" lon="6.80168">
        <ele>365.44</ele>
        <time>2011-04-10T11:35:07Z</time>
      </trkpt>
      <trkpt lat="43.49569" lon="6.80165">
        <ele>365.44</ele>
        <time>2011-04-10T11:35:14Z</time>
      </trkpt>
      <trkpt lat="43.49576" lon="6.80165">
        <ele>366.4</ele>
        <time>2011-04-10T11:35:21Z</time>
      </trkpt>
      <trkpt lat="43.49585" lon="6.80164">
        <ele>364.96</ele>
        <time>2011-04-10T11:35:31Z</time>
      </trkpt>
      <trkpt lat="43.49597" lon="6.80162">
        <ele>364.96</ele>
        <time>2011-04-10T11:35:44Z</time>
      </trkpt>
      <trkpt lat="43.49602" lon="6.80163">
        <ele>364.96</ele>
        <time>2011-04-10T11:35:48Z</time>
      </trkpt>
      <trkpt lat="43.49611" lon="6.80162">
        <ele>365.44</ele>
        <time>2011-04-10T11:35:58Z</time>
      </trkpt>
      <trkpt lat="43.49627" lon="6.80158">
        <ele>364</ele>
        <time>2011-04-10T11:36:14Z</time>
      </trkpt>
      <trkpt lat="43.4963" lon="6.80158">
        <ele>364.48</ele>
        <time>2011-04-10T11:36:17Z</time>
      </trkpt>
      <trkpt lat="43.49644" lon="6.80159">
        <ele>364</ele>
        <time>2011-04-10T11:36:32Z</time>
      </trkpt>
      <trkpt lat="43.49652" lon="6.80161">
        <ele>364.48</ele>
        <time>2011-04-10T11:36:44Z</time>
      </trkpt>
      <trkpt lat="43.49652" lon="6.80161">
        <ele>368.32</ele>
        <time>2011-04-10T11:36:45Z</time>
      </trkpt>
      <trkpt lat="43.49652" lon="6.80161">
        <ele>364.48</ele>
        <time>2011-04-10T11:36:46Z</time>
      </trkpt>
      <trkpt lat="43.49652" lon="6.80161">
        <ele>363.52</ele>
        <time>2011-04-10T11:37:06Z</time>
      </trkpt>
      <trkpt lat="43.49652" lon="6.80161">
        <ele>364.96</ele>
        <time>2011-04-10T11:37:09Z</time>
      </trkpt>
      <trkpt lat="43.49652" lon="6.80161">
        <ele>364</ele>
        <time>2011-04-10T11:37:33Z</time>
      </trkpt>
      <trkpt lat="43.49652" lon="6.80161">
        <ele>364</ele>
        <time>2011-04-10T11:37:34Z</time>
      </trkpt>
    </trkseg>
  </trk>
</gpx>